<?xml version="1.0" encoding="UTF-8" standalone="no" ?>
<gpx xmlns="http://www.topografix.com/GPX/1/1" xmlns:xsi="http://www.w3.org/2001/XMLSchema-instance" xsi:schemaLocation="http://www.topografix.com/GPX/1/1 http://www.topografix.com/GPX/1/1/gpx.xsd" version="1.1" creator="VisuGPX - https://www.visugpx.com">
  <metadata>
    <name>2015-05-10_PEDESTRE-Rando du Puy de Wolf</name>
    <desc><![CDATA[Rando du Puy de Wolf 2015]]></desc>
  </metadata>
  <trk>
    <name><![CDATA[27-SEP-13 17:35:43]]></name>
    <trkseg>
      <trkpt lat="44.5412" lon="2.30776">
        <ele>241.43</ele>
        <time>2013-09-27T14:29:29Z</time>
      </trkpt>
      <trkpt lat="44.5412" lon="2.30776">
        <ele>238.06</ele>
        <time>2013-09-27T14:29:34Z</time>
      </trkpt>
      <trkpt lat="44.5412" lon="2.30776">
        <ele>239.51</ele>
        <time>2013-09-27T14:29:35Z</time>
      </trkpt>
      <trkpt lat="44.54133" lon="2.30788">
        <ele>239.51</ele>
        <time>2013-09-27T14:29:45Z</time>
      </trkpt>
      <trkpt lat="44.54145" lon="2.30794">
        <ele>239.51</ele>
        <time>2013-09-27T14:29:54Z</time>
      </trkpt>
      <trkpt lat="44.5417" lon="2.3081">
        <ele>239.51</ele>
        <time>2013-09-27T14:30:11Z</time>
      </trkpt>
      <trkpt lat="44.54185" lon="2.30821">
        <ele>239.51</ele>
        <time>2013-09-27T14:30:23Z</time>
      </trkpt>
      <trkpt lat="44.54192" lon="2.30829">
        <ele>238.06</ele>
        <time>2013-09-27T14:30:27Z</time>
      </trkpt>
      <trkpt lat="44.54212" lon="2.30836">
        <ele>238.54</ele>
        <time>2013-09-27T14:30:34Z</time>
      </trkpt>
      <trkpt lat="44.54228" lon="2.3082">
        <ele>239.99</ele>
        <time>2013-09-27T14:30:42Z</time>
      </trkpt>
      <trkpt lat="44.54238" lon="2.30788">
        <ele>240.47</ele>
        <time>2013-09-27T14:30:51Z</time>
      </trkpt>
      <trkpt lat="44.54254" lon="2.30793">
        <ele>239.02</ele>
        <time>2013-09-27T14:30:58Z</time>
      </trkpt>
      <trkpt lat="44.5426" lon="2.3079">
        <ele>238.54</ele>
        <time>2013-09-27T14:31:00Z</time>
      </trkpt>
      <trkpt lat="44.54274" lon="2.30794">
        <ele>237.58</ele>
        <time>2013-09-27T14:31:06Z</time>
      </trkpt>
      <trkpt lat="44.54275" lon="2.30814">
        <ele>239.02</ele>
        <time>2013-09-27T14:31:12Z</time>
      </trkpt>
      <trkpt lat="44.54277" lon="2.30822">
        <ele>239.99</ele>
        <time>2013-09-27T14:31:14Z</time>
      </trkpt>
      <trkpt lat="44.54282" lon="2.30829">
        <ele>240.95</ele>
        <time>2013-09-27T14:31:17Z</time>
      </trkpt>
      <trkpt lat="44.54295" lon="2.30837">
        <ele>241.91</ele>
        <time>2013-09-27T14:31:22Z</time>
      </trkpt>
      <trkpt lat="44.54301" lon="2.3085">
        <ele>241.43</ele>
        <time>2013-09-27T14:31:26Z</time>
      </trkpt>
      <trkpt lat="44.54309" lon="2.30852">
        <ele>241.43</ele>
        <time>2013-09-27T14:31:30Z</time>
      </trkpt>
      <trkpt lat="44.54319" lon="2.30852">
        <ele>241.91</ele>
        <time>2013-09-27T14:31:34Z</time>
      </trkpt>
      <trkpt lat="44.54326" lon="2.30859">
        <ele>242.87</ele>
        <time>2013-09-27T14:31:38Z</time>
      </trkpt>
      <trkpt lat="44.54333" lon="2.30862">
        <ele>243.83</ele>
        <time>2013-09-27T14:31:42Z</time>
      </trkpt>
      <trkpt lat="44.54337" lon="2.30866">
        <ele>245.27</ele>
        <time>2013-09-27T14:31:47Z</time>
      </trkpt>
      <trkpt lat="44.5435" lon="2.30869">
        <ele>248.64</ele>
        <time>2013-09-27T14:31:58Z</time>
      </trkpt>
      <trkpt lat="44.54351" lon="2.30871">
        <ele>249.12</ele>
        <time>2013-09-27T14:32:00Z</time>
      </trkpt>
      <trkpt lat="44.54355" lon="2.30873">
        <ele>250.08</ele>
        <time>2013-09-27T14:32:05Z</time>
      </trkpt>
      <trkpt lat="44.54359" lon="2.30874">
        <ele>251.52</ele>
        <time>2013-09-27T14:32:08Z</time>
      </trkpt>
      <trkpt lat="44.54363" lon="2.30875">
        <ele>252.96</ele>
        <time>2013-09-27T14:32:12Z</time>
      </trkpt>
      <trkpt lat="44.54372" lon="2.30874">
        <ele>253.93</ele>
        <time>2013-09-27T14:32:18Z</time>
      </trkpt>
      <trkpt lat="44.5438" lon="2.3088">
        <ele>257.77</ele>
        <time>2013-09-27T14:32:29Z</time>
      </trkpt>
      <trkpt lat="44.54382" lon="2.30881">
        <ele>258.25</ele>
        <time>2013-09-27T14:32:31Z</time>
      </trkpt>
      <trkpt lat="44.54389" lon="2.30882">
        <ele>259.69</ele>
        <time>2013-09-27T14:32:37Z</time>
      </trkpt>
      <trkpt lat="44.54393" lon="2.30884">
        <ele>260.65</ele>
        <time>2013-09-27T14:32:41Z</time>
      </trkpt>
      <trkpt lat="44.54403" lon="2.3089">
        <ele>264.5</ele>
        <time>2013-09-27T14:32:55Z</time>
      </trkpt>
      <trkpt lat="44.54404" lon="2.30892">
        <ele>265.46</ele>
        <time>2013-09-27T14:32:57Z</time>
      </trkpt>
      <trkpt lat="44.5441" lon="2.30893">
        <ele>265.94</ele>
        <time>2013-09-27T14:33:01Z</time>
      </trkpt>
      <trkpt lat="44.54422" lon="2.30907">
        <ele>268.35</ele>
        <time>2013-09-27T14:33:12Z</time>
      </trkpt>
      <trkpt lat="44.54428" lon="2.30914">
        <ele>269.79</ele>
        <time>2013-09-27T14:33:17Z</time>
      </trkpt>
      <trkpt lat="44.54442" lon="2.30928">
        <ele>272.67</ele>
        <time>2013-09-27T14:33:29Z</time>
      </trkpt>
      <trkpt lat="44.54451" lon="2.30938">
        <ele>275.07</ele>
        <time>2013-09-27T14:33:38Z</time>
      </trkpt>
      <trkpt lat="44.54452" lon="2.30939">
        <ele>275.07</ele>
        <time>2013-09-27T14:33:40Z</time>
      </trkpt>
      <trkpt lat="44.54457" lon="2.3096">
        <ele>277</ele>
        <time>2013-09-27T14:33:48Z</time>
      </trkpt>
      <trkpt lat="44.54457" lon="2.3096">
        <ele>277.48</ele>
        <time>2013-09-27T14:33:49Z</time>
      </trkpt>
      <trkpt lat="44.54454" lon="2.30974">
        <ele>279.88</ele>
        <time>2013-09-27T14:33:57Z</time>
      </trkpt>
      <trkpt lat="44.5445" lon="2.31">
        <ele>283.25</ele>
        <time>2013-09-27T14:34:09Z</time>
      </trkpt>
      <trkpt lat="44.54451" lon="2.31004">
        <ele>284.69</ele>
        <time>2013-09-27T14:34:13Z</time>
      </trkpt>
      <trkpt lat="44.54454" lon="2.31031">
        <ele>287.09</ele>
        <time>2013-09-27T14:34:27Z</time>
      </trkpt>
      <trkpt lat="44.54456" lon="2.31036">
        <ele>288.05</ele>
        <time>2013-09-27T14:34:31Z</time>
      </trkpt>
      <trkpt lat="44.54459" lon="2.31047">
        <ele>288.53</ele>
        <time>2013-09-27T14:34:35Z</time>
      </trkpt>
      <trkpt lat="44.5446" lon="2.31054">
        <ele>288.53</ele>
        <time>2013-09-27T14:34:37Z</time>
      </trkpt>
      <trkpt lat="44.54461" lon="2.3106">
        <ele>289.49</ele>
        <time>2013-09-27T14:34:42Z</time>
      </trkpt>
      <trkpt lat="44.54467" lon="2.31079">
        <ele>291.9</ele>
        <time>2013-09-27T14:34:55Z</time>
      </trkpt>
      <trkpt lat="44.54475" lon="2.31093">
        <ele>292.86</ele>
        <time>2013-09-27T14:35:01Z</time>
      </trkpt>
      <trkpt lat="44.54476" lon="2.31096">
        <ele>292.86</ele>
        <time>2013-09-27T14:35:03Z</time>
      </trkpt>
      <trkpt lat="44.54478" lon="2.31097">
        <ele>292.86</ele>
        <time>2013-09-27T14:35:05Z</time>
      </trkpt>
      <trkpt lat="44.54494" lon="2.31092">
        <ele>295.26</ele>
        <time>2013-09-27T14:35:17Z</time>
      </trkpt>
      <trkpt lat="44.54517" lon="2.31081">
        <ele>296.7</ele>
        <time>2013-09-27T14:35:29Z</time>
      </trkpt>
      <trkpt lat="44.54543" lon="2.31073">
        <ele>299.59</ele>
        <time>2013-09-27T14:35:40Z</time>
      </trkpt>
      <trkpt lat="44.54577" lon="2.3107">
        <ele>303.43</ele>
        <time>2013-09-27T14:35:52Z</time>
      </trkpt>
      <trkpt lat="44.54606" lon="2.31078">
        <ele>304.39</ele>
        <time>2013-09-27T14:36:04Z</time>
      </trkpt>
      <trkpt lat="44.54636" lon="2.31098">
        <ele>305.84</ele>
        <time>2013-09-27T14:36:15Z</time>
      </trkpt>
      <trkpt lat="44.54663" lon="2.31115">
        <ele>305.36</ele>
        <time>2013-09-27T14:36:26Z</time>
      </trkpt>
      <trkpt lat="44.54697" lon="2.3112">
        <ele>305.36</ele>
        <time>2013-09-27T14:36:39Z</time>
      </trkpt>
      <trkpt lat="44.54726" lon="2.31113">
        <ele>304.88</ele>
        <time>2013-09-27T14:36:49Z</time>
      </trkpt>
      <trkpt lat="44.54764" lon="2.31099">
        <ele>303.43</ele>
        <time>2013-09-27T14:37:01Z</time>
      </trkpt>
      <trkpt lat="44.54798" lon="2.31091">
        <ele>301.99</ele>
        <time>2013-09-27T14:37:11Z</time>
      </trkpt>
      <trkpt lat="44.54807" lon="2.31091">
        <ele>301.03</ele>
        <time>2013-09-27T14:37:14Z</time>
      </trkpt>
      <trkpt lat="44.54818" lon="2.31094">
        <ele>301.99</ele>
        <time>2013-09-27T14:37:18Z</time>
      </trkpt>
      <trkpt lat="44.54827" lon="2.31099">
        <ele>302.47</ele>
        <time>2013-09-27T14:37:22Z</time>
      </trkpt>
      <trkpt lat="44.54833" lon="2.31101">
        <ele>302.95</ele>
        <time>2013-09-27T14:37:27Z</time>
      </trkpt>
      <trkpt lat="44.54841" lon="2.31106">
        <ele>303.91</ele>
        <time>2013-09-27T14:37:34Z</time>
      </trkpt>
      <trkpt lat="44.54857" lon="2.31106">
        <ele>306.8</ele>
        <time>2013-09-27T14:37:45Z</time>
      </trkpt>
      <trkpt lat="44.54859" lon="2.31102">
        <ele>307.76</ele>
        <time>2013-09-27T14:37:49Z</time>
      </trkpt>
      <trkpt lat="44.54858" lon="2.3108">
        <ele>310.16</ele>
        <time>2013-09-27T14:38:00Z</time>
      </trkpt>
      <trkpt lat="44.54859" lon="2.31077">
        <ele>310.64</ele>
        <time>2013-09-27T14:38:01Z</time>
      </trkpt>
      <trkpt lat="44.54862" lon="2.31073">
        <ele>311.6</ele>
        <time>2013-09-27T14:38:05Z</time>
      </trkpt>
      <trkpt lat="44.54865" lon="2.31071">
        <ele>311.6</ele>
        <time>2013-09-27T14:38:08Z</time>
      </trkpt>
      <trkpt lat="44.54865" lon="2.31069">
        <ele>312.57</ele>
        <time>2013-09-27T14:38:14Z</time>
      </trkpt>
      <trkpt lat="44.54874" lon="2.31067">
        <ele>313.05</ele>
        <time>2013-09-27T14:38:19Z</time>
      </trkpt>
      <trkpt lat="44.54884" lon="2.31053">
        <ele>311.6</ele>
        <time>2013-09-27T14:38:25Z</time>
      </trkpt>
      <trkpt lat="44.54893" lon="2.3104">
        <ele>308.24</ele>
        <time>2013-09-27T14:38:31Z</time>
      </trkpt>
      <trkpt lat="44.54897" lon="2.31037">
        <ele>307.28</ele>
        <time>2013-09-27T14:38:33Z</time>
      </trkpt>
      <trkpt lat="44.549" lon="2.31035">
        <ele>305.84</ele>
        <time>2013-09-27T14:38:35Z</time>
      </trkpt>
      <trkpt lat="44.54905" lon="2.31025">
        <ele>302.47</ele>
        <time>2013-09-27T14:38:41Z</time>
      </trkpt>
      <trkpt lat="44.54917" lon="2.31027">
        <ele>300.07</ele>
        <time>2013-09-27T14:38:48Z</time>
      </trkpt>
      <trkpt lat="44.54921" lon="2.31031">
        <ele>300.07</ele>
        <time>2013-09-27T14:38:51Z</time>
      </trkpt>
      <trkpt lat="44.54921" lon="2.31036">
        <ele>299.11</ele>
        <time>2013-09-27T14:38:54Z</time>
      </trkpt>
      <trkpt lat="44.54923" lon="2.31046">
        <ele>296.22</ele>
        <time>2013-09-27T14:39:02Z</time>
      </trkpt>
      <trkpt lat="44.54927" lon="2.31059">
        <ele>291.9</ele>
        <time>2013-09-27T14:39:10Z</time>
      </trkpt>
      <trkpt lat="44.54928" lon="2.3106">
        <ele>291.9</ele>
        <time>2013-09-27T14:39:11Z</time>
      </trkpt>
      <trkpt lat="44.54928" lon="2.31061">
        <ele>291.9</ele>
        <time>2013-09-27T14:39:18Z</time>
      </trkpt>
      <trkpt lat="44.54929" lon="2.31067">
        <ele>289.97</ele>
        <time>2013-09-27T14:39:22Z</time>
      </trkpt>
      <trkpt lat="44.54928" lon="2.31068">
        <ele>289.97</ele>
        <time>2013-09-27T14:39:23Z</time>
      </trkpt>
      <trkpt lat="44.54926" lon="2.31075">
        <ele>287.09</ele>
        <time>2013-09-27T14:39:29Z</time>
      </trkpt>
      <trkpt lat="44.54927" lon="2.31087">
        <ele>284.69</ele>
        <time>2013-09-27T14:39:34Z</time>
      </trkpt>
      <trkpt lat="44.54924" lon="2.31098">
        <ele>284.21</ele>
        <time>2013-09-27T14:39:38Z</time>
      </trkpt>
      <trkpt lat="44.5492" lon="2.31131">
        <ele>281.8</ele>
        <time>2013-09-27T14:39:48Z</time>
      </trkpt>
      <trkpt lat="44.54918" lon="2.31136">
        <ele>282.28</ele>
        <time>2013-09-27T14:39:50Z</time>
      </trkpt>
      <trkpt lat="44.54922" lon="2.31168">
        <ele>280.36</ele>
        <time>2013-09-27T14:40:00Z</time>
      </trkpt>
      <trkpt lat="44.54929" lon="2.31177">
        <ele>279.4</ele>
        <time>2013-09-27T14:40:04Z</time>
      </trkpt>
      <trkpt lat="44.54946" lon="2.31194">
        <ele>276.52</ele>
        <time>2013-09-27T14:40:11Z</time>
      </trkpt>
      <trkpt lat="44.5495" lon="2.31201">
        <ele>276.04</ele>
        <time>2013-09-27T14:40:13Z</time>
      </trkpt>
      <trkpt lat="44.54952" lon="2.31209">
        <ele>275.07</ele>
        <time>2013-09-27T14:40:15Z</time>
      </trkpt>
      <trkpt lat="44.54956" lon="2.31242">
        <ele>276.04</ele>
        <time>2013-09-27T14:40:24Z</time>
      </trkpt>
      <trkpt lat="44.54963" lon="2.3128">
        <ele>277</ele>
        <time>2013-09-27T14:40:34Z</time>
      </trkpt>
      <trkpt lat="44.54959" lon="2.31304">
        <ele>279.4</ele>
        <time>2013-09-27T14:40:41Z</time>
      </trkpt>
      <trkpt lat="44.54982" lon="2.31337">
        <ele>277.48</ele>
        <time>2013-09-27T14:40:53Z</time>
      </trkpt>
      <trkpt lat="44.55002" lon="2.31375">
        <ele>277.96</ele>
        <time>2013-09-27T14:41:04Z</time>
      </trkpt>
      <trkpt lat="44.55019" lon="2.31414">
        <ele>277.96</ele>
        <time>2013-09-27T14:41:15Z</time>
      </trkpt>
      <trkpt lat="44.55038" lon="2.31443">
        <ele>276.04</ele>
        <time>2013-09-27T14:41:24Z</time>
      </trkpt>
      <trkpt lat="44.55042" lon="2.31444">
        <ele>275.07</ele>
        <time>2013-09-27T14:41:25Z</time>
      </trkpt>
      <trkpt lat="44.55045" lon="2.31445">
        <ele>275.56</ele>
        <time>2013-09-27T14:41:26Z</time>
      </trkpt>
      <trkpt lat="44.55083" lon="2.31447">
        <ele>274.11</ele>
        <time>2013-09-27T14:41:36Z</time>
      </trkpt>
      <trkpt lat="44.55114" lon="2.31457">
        <ele>274.59</ele>
        <time>2013-09-27T14:41:46Z</time>
      </trkpt>
      <trkpt lat="44.55135" lon="2.31484">
        <ele>275.56</ele>
        <time>2013-09-27T14:41:56Z</time>
      </trkpt>
      <trkpt lat="44.5516" lon="2.31507">
        <ele>277.48</ele>
        <time>2013-09-27T14:42:06Z</time>
      </trkpt>
      <trkpt lat="44.55185" lon="2.31521">
        <ele>279.4</ele>
        <time>2013-09-27T14:42:16Z</time>
      </trkpt>
      <trkpt lat="44.55208" lon="2.31517">
        <ele>280.36</ele>
        <time>2013-09-27T14:42:25Z</time>
      </trkpt>
      <trkpt lat="44.5521" lon="2.31516">
        <ele>279.88</ele>
        <time>2013-09-27T14:42:26Z</time>
      </trkpt>
      <trkpt lat="44.55212" lon="2.31515">
        <ele>280.84</ele>
        <time>2013-09-27T14:42:27Z</time>
      </trkpt>
      <trkpt lat="44.55214" lon="2.31514">
        <ele>280.84</ele>
        <time>2013-09-27T14:42:28Z</time>
      </trkpt>
      <trkpt lat="44.55217" lon="2.31513">
        <ele>281.32</ele>
        <time>2013-09-27T14:42:29Z</time>
      </trkpt>
      <trkpt lat="44.55219" lon="2.31511">
        <ele>281.8</ele>
        <time>2013-09-27T14:42:30Z</time>
      </trkpt>
      <trkpt lat="44.55221" lon="2.3151">
        <ele>281.32</ele>
        <time>2013-09-27T14:42:31Z</time>
      </trkpt>
      <trkpt lat="44.55224" lon="2.31509">
        <ele>281.8</ele>
        <time>2013-09-27T14:42:32Z</time>
      </trkpt>
      <trkpt lat="44.55226" lon="2.31509">
        <ele>282.28</ele>
        <time>2013-09-27T14:42:33Z</time>
      </trkpt>
      <trkpt lat="44.55228" lon="2.31509">
        <ele>282.28</ele>
        <time>2013-09-27T14:42:34Z</time>
      </trkpt>
      <trkpt lat="44.55231" lon="2.31509">
        <ele>282.28</ele>
        <time>2013-09-27T14:42:35Z</time>
      </trkpt>
      <trkpt lat="44.55234" lon="2.31508">
        <ele>282.77</ele>
        <time>2013-09-27T14:42:36Z</time>
      </trkpt>
      <trkpt lat="44.55237" lon="2.31507">
        <ele>282.77</ele>
        <time>2013-09-27T14:42:37Z</time>
      </trkpt>
      <trkpt lat="44.5527" lon="2.31511">
        <ele>285.65</ele>
        <time>2013-09-27T14:42:51Z</time>
      </trkpt>
      <trkpt lat="44.55272" lon="2.3151">
        <ele>286.13</ele>
        <time>2013-09-27T14:42:52Z</time>
      </trkpt>
      <trkpt lat="44.55274" lon="2.31509">
        <ele>286.61</ele>
        <time>2013-09-27T14:42:53Z</time>
      </trkpt>
      <trkpt lat="44.55287" lon="2.31505">
        <ele>288.05</ele>
        <time>2013-09-27T14:43:01Z</time>
      </trkpt>
      <trkpt lat="44.5529" lon="2.31506">
        <ele>288.05</ele>
        <time>2013-09-27T14:43:02Z</time>
      </trkpt>
      <trkpt lat="44.55294" lon="2.31506">
        <ele>288.05</ele>
        <time>2013-09-27T14:43:03Z</time>
      </trkpt>
      <trkpt lat="44.55297" lon="2.31507">
        <ele>288.05</ele>
        <time>2013-09-27T14:43:04Z</time>
      </trkpt>
      <trkpt lat="44.55299" lon="2.31508">
        <ele>287.57</ele>
        <time>2013-09-27T14:43:05Z</time>
      </trkpt>
      <trkpt lat="44.55301" lon="2.31508">
        <ele>287.09</ele>
        <time>2013-09-27T14:43:06Z</time>
      </trkpt>
      <trkpt lat="44.55302" lon="2.3151">
        <ele>286.61</ele>
        <time>2013-09-27T14:43:07Z</time>
      </trkpt>
      <trkpt lat="44.55304" lon="2.31511">
        <ele>285.65</ele>
        <time>2013-09-27T14:43:08Z</time>
      </trkpt>
      <trkpt lat="44.55305" lon="2.31513">
        <ele>285.17</ele>
        <time>2013-09-27T14:43:09Z</time>
      </trkpt>
      <trkpt lat="44.55308" lon="2.31515">
        <ele>285.17</ele>
        <time>2013-09-27T14:43:10Z</time>
      </trkpt>
      <trkpt lat="44.5531" lon="2.31515">
        <ele>285.17</ele>
        <time>2013-09-27T14:43:11Z</time>
      </trkpt>
      <trkpt lat="44.55312" lon="2.31515">
        <ele>285.65</ele>
        <time>2013-09-27T14:43:12Z</time>
      </trkpt>
      <trkpt lat="44.55314" lon="2.31516">
        <ele>285.65</ele>
        <time>2013-09-27T14:43:13Z</time>
      </trkpt>
      <trkpt lat="44.55316" lon="2.31516">
        <ele>285.65</ele>
        <time>2013-09-27T14:43:14Z</time>
      </trkpt>
      <trkpt lat="44.55318" lon="2.31516">
        <ele>285.17</ele>
        <time>2013-09-27T14:43:15Z</time>
      </trkpt>
      <trkpt lat="44.5532" lon="2.31517">
        <ele>285.17</ele>
        <time>2013-09-27T14:43:16Z</time>
      </trkpt>
      <trkpt lat="44.55322" lon="2.31516">
        <ele>286.13</ele>
        <time>2013-09-27T14:43:17Z</time>
      </trkpt>
      <trkpt lat="44.55324" lon="2.31516">
        <ele>286.13</ele>
        <time>2013-09-27T14:43:18Z</time>
      </trkpt>
      <trkpt lat="44.55325" lon="2.31516">
        <ele>285.65</ele>
        <time>2013-09-27T14:43:19Z</time>
      </trkpt>
      <trkpt lat="44.55327" lon="2.31516">
        <ele>285.65</ele>
        <time>2013-09-27T14:43:20Z</time>
      </trkpt>
      <trkpt lat="44.55349" lon="2.31519">
        <ele>288.05</ele>
        <time>2013-09-27T14:43:31Z</time>
      </trkpt>
      <trkpt lat="44.55353" lon="2.31517">
        <ele>288.05</ele>
        <time>2013-09-27T14:43:33Z</time>
      </trkpt>
      <trkpt lat="44.55375" lon="2.31504">
        <ele>291.42</ele>
        <time>2013-09-27T14:43:45Z</time>
      </trkpt>
      <trkpt lat="44.5538" lon="2.31503">
        <ele>292.38</ele>
        <time>2013-09-27T14:43:48Z</time>
      </trkpt>
      <trkpt lat="44.55396" lon="2.31504">
        <ele>295.74</ele>
        <time>2013-09-27T14:43:59Z</time>
      </trkpt>
      <trkpt lat="44.5541" lon="2.31501">
        <ele>298.63</ele>
        <time>2013-09-27T14:44:11Z</time>
      </trkpt>
      <trkpt lat="44.55413" lon="2.315">
        <ele>298.63</ele>
        <time>2013-09-27T14:44:13Z</time>
      </trkpt>
      <trkpt lat="44.55426" lon="2.31494">
        <ele>301.51</ele>
        <time>2013-09-27T14:44:26Z</time>
      </trkpt>
      <trkpt lat="44.55428" lon="2.31495">
        <ele>301.03</ele>
        <time>2013-09-27T14:44:27Z</time>
      </trkpt>
      <trkpt lat="44.55434" lon="2.31496">
        <ele>303.43</ele>
        <time>2013-09-27T14:44:31Z</time>
      </trkpt>
      <trkpt lat="44.55445" lon="2.31498">
        <ele>305.84</ele>
        <time>2013-09-27T14:44:40Z</time>
      </trkpt>
      <trkpt lat="44.55447" lon="2.31497">
        <ele>305.84</ele>
        <time>2013-09-27T14:44:41Z</time>
      </trkpt>
      <trkpt lat="44.55448" lon="2.31496">
        <ele>305.36</ele>
        <time>2013-09-27T14:44:42Z</time>
      </trkpt>
      <trkpt lat="44.55456" lon="2.31491">
        <ele>305.84</ele>
        <time>2013-09-27T14:44:47Z</time>
      </trkpt>
      <trkpt lat="44.55459" lon="2.31489">
        <ele>305.36</ele>
        <time>2013-09-27T14:44:50Z</time>
      </trkpt>
      <trkpt lat="44.5546" lon="2.31489">
        <ele>305.36</ele>
        <time>2013-09-27T14:44:51Z</time>
      </trkpt>
      <trkpt lat="44.55462" lon="2.3149">
        <ele>304.88</ele>
        <time>2013-09-27T14:44:52Z</time>
      </trkpt>
      <trkpt lat="44.55465" lon="2.3149">
        <ele>304.88</ele>
        <time>2013-09-27T14:44:53Z</time>
      </trkpt>
      <trkpt lat="44.55467" lon="2.31491">
        <ele>305.36</ele>
        <time>2013-09-27T14:44:54Z</time>
      </trkpt>
      <trkpt lat="44.55469" lon="2.31491">
        <ele>304.88</ele>
        <time>2013-09-27T14:44:55Z</time>
      </trkpt>
      <trkpt lat="44.55472" lon="2.31491">
        <ele>304.88</ele>
        <time>2013-09-27T14:44:56Z</time>
      </trkpt>
      <trkpt lat="44.55475" lon="2.3149">
        <ele>304.39</ele>
        <time>2013-09-27T14:44:57Z</time>
      </trkpt>
      <trkpt lat="44.55477" lon="2.31489">
        <ele>304.39</ele>
        <time>2013-09-27T14:44:58Z</time>
      </trkpt>
      <trkpt lat="44.55494" lon="2.31485">
        <ele>304.88</ele>
        <time>2013-09-27T14:45:04Z</time>
      </trkpt>
      <trkpt lat="44.55509" lon="2.31494">
        <ele>306.8</ele>
        <time>2013-09-27T14:45:11Z</time>
      </trkpt>
      <trkpt lat="44.55534" lon="2.31497">
        <ele>310.16</ele>
        <time>2013-09-27T14:45:24Z</time>
      </trkpt>
      <trkpt lat="44.55537" lon="2.31495">
        <ele>310.64</ele>
        <time>2013-09-27T14:45:28Z</time>
      </trkpt>
      <trkpt lat="44.55545" lon="2.31495">
        <ele>310.16</ele>
        <time>2013-09-27T14:45:39Z</time>
      </trkpt>
      <trkpt lat="44.55545" lon="2.31493">
        <ele>311.6</ele>
        <time>2013-09-27T14:45:44Z</time>
      </trkpt>
      <trkpt lat="44.55545" lon="2.31488">
        <ele>311.6</ele>
        <time>2013-09-27T14:45:49Z</time>
      </trkpt>
      <trkpt lat="44.55538" lon="2.31484">
        <ele>313.53</ele>
        <time>2013-09-27T14:45:56Z</time>
      </trkpt>
      <trkpt lat="44.5553" lon="2.31483">
        <ele>316.89</ele>
        <time>2013-09-27T14:46:06Z</time>
      </trkpt>
      <trkpt lat="44.55527" lon="2.31482">
        <ele>316.89</ele>
        <time>2013-09-27T14:46:07Z</time>
      </trkpt>
      <trkpt lat="44.55516" lon="2.31476">
        <ele>319.3</ele>
        <time>2013-09-27T14:46:17Z</time>
      </trkpt>
      <trkpt lat="44.55506" lon="2.31452">
        <ele>322.66</ele>
        <time>2013-09-27T14:46:28Z</time>
      </trkpt>
      <trkpt lat="44.55505" lon="2.31439">
        <ele>325.06</ele>
        <time>2013-09-27T14:46:35Z</time>
      </trkpt>
      <trkpt lat="44.55508" lon="2.31434">
        <ele>326.02</ele>
        <time>2013-09-27T14:46:40Z</time>
      </trkpt>
      <trkpt lat="44.5551" lon="2.31427">
        <ele>326.5</ele>
        <time>2013-09-27T14:46:43Z</time>
      </trkpt>
      <trkpt lat="44.55517" lon="2.31416">
        <ele>329.39</ele>
        <time>2013-09-27T14:46:52Z</time>
      </trkpt>
      <trkpt lat="44.55525" lon="2.31402">
        <ele>333.71</ele>
        <time>2013-09-27T14:47:04Z</time>
      </trkpt>
      <trkpt lat="44.5553" lon="2.31391">
        <ele>334.68</ele>
        <time>2013-09-27T14:47:10Z</time>
      </trkpt>
      <trkpt lat="44.55535" lon="2.31385">
        <ele>337.08</ele>
        <time>2013-09-27T14:47:17Z</time>
      </trkpt>
      <trkpt lat="44.55554" lon="2.31363">
        <ele>339.96</ele>
        <time>2013-09-27T14:47:30Z</time>
      </trkpt>
      <trkpt lat="44.55567" lon="2.31324">
        <ele>342.85</ele>
        <time>2013-09-27T14:47:43Z</time>
      </trkpt>
      <trkpt lat="44.55571" lon="2.31293">
        <ele>343.81</ele>
        <time>2013-09-27T14:47:54Z</time>
      </trkpt>
      <trkpt lat="44.55578" lon="2.3126">
        <ele>344.77</ele>
        <time>2013-09-27T14:48:05Z</time>
      </trkpt>
      <trkpt lat="44.55578" lon="2.31251">
        <ele>345.73</ele>
        <time>2013-09-27T14:48:09Z</time>
      </trkpt>
      <trkpt lat="44.55579" lon="2.3124">
        <ele>347.17</ele>
        <time>2013-09-27T14:48:16Z</time>
      </trkpt>
      <trkpt lat="44.55581" lon="2.31232">
        <ele>348.62</ele>
        <time>2013-09-27T14:48:21Z</time>
      </trkpt>
      <trkpt lat="44.55585" lon="2.31221">
        <ele>349.1</ele>
        <time>2013-09-27T14:48:26Z</time>
      </trkpt>
      <trkpt lat="44.55597" lon="2.31192">
        <ele>351.02</ele>
        <time>2013-09-27T14:48:39Z</time>
      </trkpt>
      <trkpt lat="44.55611" lon="2.31168">
        <ele>353.9</ele>
        <time>2013-09-27T14:48:51Z</time>
      </trkpt>
      <trkpt lat="44.55622" lon="2.31145">
        <ele>356.79</ele>
        <time>2013-09-27T14:49:04Z</time>
      </trkpt>
      <trkpt lat="44.55632" lon="2.31135">
        <ele>359.67</ele>
        <time>2013-09-27T14:49:15Z</time>
      </trkpt>
      <trkpt lat="44.55635" lon="2.31128">
        <ele>361.11</ele>
        <time>2013-09-27T14:49:19Z</time>
      </trkpt>
      <trkpt lat="44.55642" lon="2.31124">
        <ele>364</ele>
        <time>2013-09-27T14:49:30Z</time>
      </trkpt>
      <trkpt lat="44.55644" lon="2.31121">
        <ele>364.96</ele>
        <time>2013-09-27T14:49:32Z</time>
      </trkpt>
      <trkpt lat="44.55647" lon="2.31112">
        <ele>365.92</ele>
        <time>2013-09-27T14:49:37Z</time>
      </trkpt>
      <trkpt lat="44.55658" lon="2.31103">
        <ele>367.84</ele>
        <time>2013-09-27T14:49:45Z</time>
      </trkpt>
      <trkpt lat="44.55661" lon="2.31095">
        <ele>369.28</ele>
        <time>2013-09-27T14:49:52Z</time>
      </trkpt>
      <trkpt lat="44.5567" lon="2.31069">
        <ele>370.73</ele>
        <time>2013-09-27T14:50:03Z</time>
      </trkpt>
      <trkpt lat="44.55683" lon="2.31055">
        <ele>373.61</ele>
        <time>2013-09-27T14:50:16Z</time>
      </trkpt>
      <trkpt lat="44.55697" lon="2.31042">
        <ele>376.97</ele>
        <time>2013-09-27T14:50:29Z</time>
      </trkpt>
      <trkpt lat="44.55699" lon="2.31039">
        <ele>377.45</ele>
        <time>2013-09-27T14:50:31Z</time>
      </trkpt>
      <trkpt lat="44.55708" lon="2.31028">
        <ele>380.82</ele>
        <time>2013-09-27T14:50:41Z</time>
      </trkpt>
      <trkpt lat="44.5571" lon="2.31025">
        <ele>382.74</ele>
        <time>2013-09-27T14:50:47Z</time>
      </trkpt>
      <trkpt lat="44.55717" lon="2.31018">
        <ele>386.11</ele>
        <time>2013-09-27T14:50:56Z</time>
      </trkpt>
      <trkpt lat="44.55718" lon="2.31016">
        <ele>387.07</ele>
        <time>2013-09-27T14:50:59Z</time>
      </trkpt>
      <trkpt lat="44.5572" lon="2.31015">
        <ele>388.51</ele>
        <time>2013-09-27T14:51:02Z</time>
      </trkpt>
      <trkpt lat="44.55724" lon="2.31024">
        <ele>391.87</ele>
        <time>2013-09-27T14:51:13Z</time>
      </trkpt>
      <trkpt lat="44.55729" lon="2.31033">
        <ele>393.8</ele>
        <time>2013-09-27T14:51:20Z</time>
      </trkpt>
      <trkpt lat="44.55734" lon="2.31053">
        <ele>397.16</ele>
        <time>2013-09-27T14:51:33Z</time>
      </trkpt>
      <trkpt lat="44.55738" lon="2.31062">
        <ele>397.16</ele>
        <time>2013-09-27T14:51:39Z</time>
      </trkpt>
      <trkpt lat="44.55735" lon="2.31073">
        <ele>396.2</ele>
        <time>2013-09-27T14:51:43Z</time>
      </trkpt>
      <trkpt lat="44.55733" lon="2.31088">
        <ele>396.2</ele>
        <time>2013-09-27T14:51:47Z</time>
      </trkpt>
      <trkpt lat="44.5573" lon="2.31121">
        <ele>395.24</ele>
        <time>2013-09-27T14:51:58Z</time>
      </trkpt>
      <trkpt lat="44.55729" lon="2.31127">
        <ele>395.24</ele>
        <time>2013-09-27T14:52:04Z</time>
      </trkpt>
      <trkpt lat="44.55722" lon="2.31136">
        <ele>395.24</ele>
        <time>2013-09-27T14:52:13Z</time>
      </trkpt>
      <trkpt lat="44.55726" lon="2.31147">
        <ele>395.72</ele>
        <time>2013-09-27T14:52:20Z</time>
      </trkpt>
      <trkpt lat="44.5572" lon="2.31155">
        <ele>396.68</ele>
        <time>2013-09-27T14:52:26Z</time>
      </trkpt>
      <trkpt lat="44.55717" lon="2.31172">
        <ele>398.12</ele>
        <time>2013-09-27T14:52:37Z</time>
      </trkpt>
      <trkpt lat="44.55715" lon="2.31176">
        <ele>398.6</ele>
        <time>2013-09-27T14:52:44Z</time>
      </trkpt>
      <trkpt lat="44.5571" lon="2.3119">
        <ele>398.6</ele>
        <time>2013-09-27T14:52:59Z</time>
      </trkpt>
      <trkpt lat="44.55707" lon="2.31197">
        <ele>399.08</ele>
        <time>2013-09-27T14:53:14Z</time>
      </trkpt>
      <trkpt lat="44.55703" lon="2.31209">
        <ele>399.57</ele>
        <time>2013-09-27T14:53:28Z</time>
      </trkpt>
      <trkpt lat="44.55705" lon="2.31231">
        <ele>399.57</ele>
        <time>2013-09-27T14:53:47Z</time>
      </trkpt>
      <trkpt lat="44.55702" lon="2.31268">
        <ele>400.05</ele>
        <time>2013-09-27T14:54:01Z</time>
      </trkpt>
      <trkpt lat="44.55707" lon="2.31306">
        <ele>401.49</ele>
        <time>2013-09-27T14:54:11Z</time>
      </trkpt>
      <trkpt lat="44.55708" lon="2.3131">
        <ele>401.49</ele>
        <time>2013-09-27T14:54:13Z</time>
      </trkpt>
      <trkpt lat="44.55711" lon="2.31315">
        <ele>401.97</ele>
        <time>2013-09-27T14:54:16Z</time>
      </trkpt>
      <trkpt lat="44.55715" lon="2.31332">
        <ele>403.41</ele>
        <time>2013-09-27T14:54:22Z</time>
      </trkpt>
      <trkpt lat="44.55728" lon="2.31365">
        <ele>405.33</ele>
        <time>2013-09-27T14:54:33Z</time>
      </trkpt>
      <trkpt lat="44.55752" lon="2.31377">
        <ele>405.33</ele>
        <time>2013-09-27T14:54:43Z</time>
      </trkpt>
      <trkpt lat="44.55782" lon="2.31368">
        <ele>407.26</ele>
        <time>2013-09-27T14:54:56Z</time>
      </trkpt>
      <trkpt lat="44.55811" lon="2.31365">
        <ele>409.18</ele>
        <time>2013-09-27T14:55:06Z</time>
      </trkpt>
      <trkpt lat="44.55833" lon="2.31366">
        <ele>412.06</ele>
        <time>2013-09-27T14:55:15Z</time>
      </trkpt>
      <trkpt lat="44.55855" lon="2.31375">
        <ele>414.47</ele>
        <time>2013-09-27T14:55:23Z</time>
      </trkpt>
      <trkpt lat="44.55857" lon="2.31375">
        <ele>414.95</ele>
        <time>2013-09-27T14:55:24Z</time>
      </trkpt>
      <trkpt lat="44.55861" lon="2.31376">
        <ele>414.95</ele>
        <time>2013-09-27T14:55:26Z</time>
      </trkpt>
      <trkpt lat="44.55866" lon="2.31374">
        <ele>415.91</ele>
        <time>2013-09-27T14:55:29Z</time>
      </trkpt>
      <trkpt lat="44.55875" lon="2.3138">
        <ele>416.87</ele>
        <time>2013-09-27T14:55:33Z</time>
      </trkpt>
      <trkpt lat="44.55884" lon="2.31393">
        <ele>418.31</ele>
        <time>2013-09-27T14:55:42Z</time>
      </trkpt>
      <trkpt lat="44.5589" lon="2.3138">
        <ele>421.19</ele>
        <time>2013-09-27T14:55:52Z</time>
      </trkpt>
      <trkpt lat="44.55889" lon="2.31377">
        <ele>421.19</ele>
        <time>2013-09-27T14:55:54Z</time>
      </trkpt>
      <trkpt lat="44.55887" lon="2.31368">
        <ele>422.64</ele>
        <time>2013-09-27T14:56:00Z</time>
      </trkpt>
      <trkpt lat="44.55885" lon="2.31358">
        <ele>425.04</ele>
        <time>2013-09-27T14:56:08Z</time>
      </trkpt>
      <trkpt lat="44.55881" lon="2.31355">
        <ele>426.48</ele>
        <time>2013-09-27T14:56:13Z</time>
      </trkpt>
      <trkpt lat="44.55876" lon="2.31345">
        <ele>428.89</ele>
        <time>2013-09-27T14:56:21Z</time>
      </trkpt>
      <trkpt lat="44.55881" lon="2.31337">
        <ele>429.85</ele>
        <time>2013-09-27T14:56:28Z</time>
      </trkpt>
      <trkpt lat="44.55885" lon="2.31331">
        <ele>431.77</ele>
        <time>2013-09-27T14:56:33Z</time>
      </trkpt>
      <trkpt lat="44.55886" lon="2.31321">
        <ele>434.65</ele>
        <time>2013-09-27T14:56:43Z</time>
      </trkpt>
      <trkpt lat="44.55869" lon="2.31316">
        <ele>438.02</ele>
        <time>2013-09-27T14:56:54Z</time>
      </trkpt>
      <trkpt lat="44.55853" lon="2.31317">
        <ele>439.94</ele>
        <time>2013-09-27T14:57:04Z</time>
      </trkpt>
      <trkpt lat="44.5585" lon="2.31316">
        <ele>440.42</ele>
        <time>2013-09-27T14:57:06Z</time>
      </trkpt>
      <trkpt lat="44.55841" lon="2.31314">
        <ele>441.86</ele>
        <time>2013-09-27T14:57:14Z</time>
      </trkpt>
      <trkpt lat="44.55828" lon="2.31302">
        <ele>445.23</ele>
        <time>2013-09-27T14:57:25Z</time>
      </trkpt>
      <trkpt lat="44.55826" lon="2.31298">
        <ele>447.15</ele>
        <time>2013-09-27T14:57:44Z</time>
      </trkpt>
      <trkpt lat="44.55826" lon="2.31298">
        <ele>447.15</ele>
        <time>2013-09-27T14:57:47Z</time>
      </trkpt>
      <trkpt lat="44.55823" lon="2.31296">
        <ele>448.11</ele>
        <time>2013-09-27T14:57:49Z</time>
      </trkpt>
      <trkpt lat="44.5582" lon="2.31293">
        <ele>448.11</ele>
        <time>2013-09-27T14:57:51Z</time>
      </trkpt>
      <trkpt lat="44.55816" lon="2.31281">
        <ele>450.52</ele>
        <time>2013-09-27T14:58:04Z</time>
      </trkpt>
      <trkpt lat="44.55815" lon="2.3128">
        <ele>450.52</ele>
        <time>2013-09-27T14:58:05Z</time>
      </trkpt>
      <trkpt lat="44.55817" lon="2.31265">
        <ele>453.88</ele>
        <time>2013-09-27T14:58:17Z</time>
      </trkpt>
      <trkpt lat="44.5582" lon="2.31263">
        <ele>455.32</ele>
        <time>2013-09-27T14:58:21Z</time>
      </trkpt>
      <trkpt lat="44.55835" lon="2.31258">
        <ele>459.17</ele>
        <time>2013-09-27T14:58:33Z</time>
      </trkpt>
      <trkpt lat="44.55842" lon="2.3125">
        <ele>461.57</ele>
        <time>2013-09-27T14:58:44Z</time>
      </trkpt>
      <trkpt lat="44.55845" lon="2.31244">
        <ele>462.05</ele>
        <time>2013-09-27T14:58:48Z</time>
      </trkpt>
      <trkpt lat="44.55851" lon="2.31224">
        <ele>465.9</ele>
        <time>2013-09-27T14:59:00Z</time>
      </trkpt>
      <trkpt lat="44.55859" lon="2.31219">
        <ele>467.82</ele>
        <time>2013-09-27T14:59:10Z</time>
      </trkpt>
      <trkpt lat="44.55866" lon="2.31211">
        <ele>469.26</ele>
        <time>2013-09-27T14:59:15Z</time>
      </trkpt>
      <trkpt lat="44.55869" lon="2.31206">
        <ele>469.74</ele>
        <time>2013-09-27T14:59:19Z</time>
      </trkpt>
      <trkpt lat="44.55871" lon="2.31202">
        <ele>471.18</ele>
        <time>2013-09-27T14:59:22Z</time>
      </trkpt>
      <trkpt lat="44.55872" lon="2.312">
        <ele>471.18</ele>
        <time>2013-09-27T14:59:23Z</time>
      </trkpt>
      <trkpt lat="44.55881" lon="2.31177">
        <ele>474.07</ele>
        <time>2013-09-27T14:59:36Z</time>
      </trkpt>
      <trkpt lat="44.55881" lon="2.31174">
        <ele>474.55</ele>
        <time>2013-09-27T14:59:38Z</time>
      </trkpt>
      <trkpt lat="44.5588" lon="2.31167">
        <ele>475.51</ele>
        <time>2013-09-27T14:59:44Z</time>
      </trkpt>
      <trkpt lat="44.55881" lon="2.31164">
        <ele>475.51</ele>
        <time>2013-09-27T14:59:47Z</time>
      </trkpt>
      <trkpt lat="44.55885" lon="2.31149">
        <ele>477.43</ele>
        <time>2013-09-27T14:59:53Z</time>
      </trkpt>
      <trkpt lat="44.55907" lon="2.3113">
        <ele>479.35</ele>
        <time>2013-09-27T15:00:06Z</time>
      </trkpt>
      <trkpt lat="44.55928" lon="2.31115">
        <ele>481.76</ele>
        <time>2013-09-27T15:00:15Z</time>
      </trkpt>
      <trkpt lat="44.55938" lon="2.3111">
        <ele>483.2</ele>
        <time>2013-09-27T15:00:20Z</time>
      </trkpt>
      <trkpt lat="44.55971" lon="2.31116">
        <ele>485.6</ele>
        <time>2013-09-27T15:00:33Z</time>
      </trkpt>
      <trkpt lat="44.55992" lon="2.31133">
        <ele>488.01</ele>
        <time>2013-09-27T15:00:43Z</time>
      </trkpt>
      <trkpt lat="44.56001" lon="2.31146">
        <ele>489.45</ele>
        <time>2013-09-27T15:00:48Z</time>
      </trkpt>
      <trkpt lat="44.56013" lon="2.31179">
        <ele>490.89</ele>
        <time>2013-09-27T15:00:58Z</time>
      </trkpt>
      <trkpt lat="44.56021" lon="2.3122">
        <ele>490.89</ele>
        <time>2013-09-27T15:01:07Z</time>
      </trkpt>
      <trkpt lat="44.56021" lon="2.31238">
        <ele>491.85</ele>
        <time>2013-09-27T15:01:12Z</time>
      </trkpt>
      <trkpt lat="44.56032" lon="2.31243">
        <ele>494.74</ele>
        <time>2013-09-27T15:01:20Z</time>
      </trkpt>
      <trkpt lat="44.56041" lon="2.31211">
        <ele>497.14</ele>
        <time>2013-09-27T15:01:31Z</time>
      </trkpt>
      <trkpt lat="44.56052" lon="2.31179">
        <ele>500.5</ele>
        <time>2013-09-27T15:01:44Z</time>
      </trkpt>
      <trkpt lat="44.56041" lon="2.31135">
        <ele>502.43</ele>
        <time>2013-09-27T15:01:56Z</time>
      </trkpt>
      <trkpt lat="44.56021" lon="2.3109">
        <ele>505.31</ele>
        <time>2013-09-27T15:02:09Z</time>
      </trkpt>
      <trkpt lat="44.56013" lon="2.31041">
        <ele>507.23</ele>
        <time>2013-09-27T15:02:21Z</time>
      </trkpt>
      <trkpt lat="44.5602" lon="2.30997">
        <ele>507.23</ele>
        <time>2013-09-27T15:02:34Z</time>
      </trkpt>
      <trkpt lat="44.56012" lon="2.3095">
        <ele>504.35</ele>
        <time>2013-09-27T15:02:44Z</time>
      </trkpt>
      <trkpt lat="44.56012" lon="2.30902">
        <ele>501.95</ele>
        <time>2013-09-27T15:02:54Z</time>
      </trkpt>
      <trkpt lat="44.56018" lon="2.30855">
        <ele>501.46</ele>
        <time>2013-09-27T15:03:04Z</time>
      </trkpt>
      <trkpt lat="44.56027" lon="2.30813">
        <ele>501.95</ele>
        <time>2013-09-27T15:03:14Z</time>
      </trkpt>
      <trkpt lat="44.56028" lon="2.30761">
        <ele>501.46</ele>
        <time>2013-09-27T15:03:26Z</time>
      </trkpt>
      <trkpt lat="44.56022" lon="2.3071">
        <ele>501.46</ele>
        <time>2013-09-27T15:03:37Z</time>
      </trkpt>
      <trkpt lat="44.56021" lon="2.30678">
        <ele>500.98</ele>
        <time>2013-09-27T15:03:45Z</time>
      </trkpt>
      <trkpt lat="44.56014" lon="2.30644">
        <ele>501.46</ele>
        <time>2013-09-27T15:03:53Z</time>
      </trkpt>
      <trkpt lat="44.56012" lon="2.30635">
        <ele>500.98</ele>
        <time>2013-09-27T15:03:55Z</time>
      </trkpt>
      <trkpt lat="44.56011" lon="2.30629">
        <ele>501.46</ele>
        <time>2013-09-27T15:03:56Z</time>
      </trkpt>
      <trkpt lat="44.5601" lon="2.30626">
        <ele>501.46</ele>
        <time>2013-09-27T15:03:57Z</time>
      </trkpt>
      <trkpt lat="44.56009" lon="2.30622">
        <ele>501.95</ele>
        <time>2013-09-27T15:03:58Z</time>
      </trkpt>
      <trkpt lat="44.56008" lon="2.30618">
        <ele>501.95</ele>
        <time>2013-09-27T15:03:59Z</time>
      </trkpt>
      <trkpt lat="44.56006" lon="2.30613">
        <ele>501.95</ele>
        <time>2013-09-27T15:04:00Z</time>
      </trkpt>
      <trkpt lat="44.56005" lon="2.30609">
        <ele>502.43</ele>
        <time>2013-09-27T15:04:01Z</time>
      </trkpt>
      <trkpt lat="44.56005" lon="2.30604">
        <ele>501.95</ele>
        <time>2013-09-27T15:04:02Z</time>
      </trkpt>
      <trkpt lat="44.56005" lon="2.306">
        <ele>502.43</ele>
        <time>2013-09-27T15:04:03Z</time>
      </trkpt>
      <trkpt lat="44.56005" lon="2.30595">
        <ele>501.95</ele>
        <time>2013-09-27T15:04:04Z</time>
      </trkpt>
      <trkpt lat="44.56005" lon="2.3059">
        <ele>501.95</ele>
        <time>2013-09-27T15:04:05Z</time>
      </trkpt>
      <trkpt lat="44.56005" lon="2.30586">
        <ele>501.95</ele>
        <time>2013-09-27T15:04:06Z</time>
      </trkpt>
      <trkpt lat="44.56005" lon="2.30581">
        <ele>502.43</ele>
        <time>2013-09-27T15:04:07Z</time>
      </trkpt>
      <trkpt lat="44.56005" lon="2.30577">
        <ele>501.95</ele>
        <time>2013-09-27T15:04:08Z</time>
      </trkpt>
      <trkpt lat="44.56009" lon="2.30536">
        <ele>500.98</ele>
        <time>2013-09-27T15:04:17Z</time>
      </trkpt>
      <trkpt lat="44.56014" lon="2.30483">
        <ele>500.98</ele>
        <time>2013-09-27T15:04:29Z</time>
      </trkpt>
      <trkpt lat="44.56021" lon="2.30443">
        <ele>500.98</ele>
        <time>2013-09-27T15:04:39Z</time>
      </trkpt>
      <trkpt lat="44.56024" lon="2.30409">
        <ele>501.46</ele>
        <time>2013-09-27T15:04:49Z</time>
      </trkpt>
      <trkpt lat="44.56023" lon="2.30407">
        <ele>502.43</ele>
        <time>2013-09-27T15:04:50Z</time>
      </trkpt>
      <trkpt lat="44.56022" lon="2.30403">
        <ele>502.43</ele>
        <time>2013-09-27T15:04:51Z</time>
      </trkpt>
      <trkpt lat="44.56022" lon="2.304">
        <ele>502.91</ele>
        <time>2013-09-27T15:04:52Z</time>
      </trkpt>
      <trkpt lat="44.56022" lon="2.30398">
        <ele>503.39</ele>
        <time>2013-09-27T15:04:53Z</time>
      </trkpt>
      <trkpt lat="44.56022" lon="2.30395">
        <ele>503.39</ele>
        <time>2013-09-27T15:04:54Z</time>
      </trkpt>
      <trkpt lat="44.56022" lon="2.30392">
        <ele>503.39</ele>
        <time>2013-09-27T15:04:55Z</time>
      </trkpt>
      <trkpt lat="44.56013" lon="2.30354">
        <ele>503.39</ele>
        <time>2013-09-27T15:05:06Z</time>
      </trkpt>
      <trkpt lat="44.55989" lon="2.30342">
        <ele>502.43</ele>
        <time>2013-09-27T15:05:15Z</time>
      </trkpt>
      <trkpt lat="44.55957" lon="2.30344">
        <ele>500.98</ele>
        <time>2013-09-27T15:05:25Z</time>
      </trkpt>
      <trkpt lat="44.5594" lon="2.30344">
        <ele>498.58</ele>
        <time>2013-09-27T15:05:30Z</time>
      </trkpt>
      <trkpt lat="44.55931" lon="2.30344">
        <ele>497.62</ele>
        <time>2013-09-27T15:05:33Z</time>
      </trkpt>
      <trkpt lat="44.55908" lon="2.30342">
        <ele>494.26</ele>
        <time>2013-09-27T15:05:40Z</time>
      </trkpt>
      <trkpt lat="44.55902" lon="2.30342">
        <ele>493.29</ele>
        <time>2013-09-27T15:05:42Z</time>
      </trkpt>
      <trkpt lat="44.55893" lon="2.3034">
        <ele>491.37</ele>
        <time>2013-09-27T15:05:45Z</time>
      </trkpt>
      <trkpt lat="44.55874" lon="2.3034">
        <ele>488.49</ele>
        <time>2013-09-27T15:05:51Z</time>
      </trkpt>
      <trkpt lat="44.55864" lon="2.30343">
        <ele>486.56</ele>
        <time>2013-09-27T15:05:54Z</time>
      </trkpt>
      <trkpt lat="44.55849" lon="2.30347">
        <ele>485.12</ele>
        <time>2013-09-27T15:05:58Z</time>
      </trkpt>
      <trkpt lat="44.55845" lon="2.30347">
        <ele>484.64</ele>
        <time>2013-09-27T15:05:59Z</time>
      </trkpt>
      <trkpt lat="44.55807" lon="2.30339">
        <ele>485.12</ele>
        <time>2013-09-27T15:06:11Z</time>
      </trkpt>
      <trkpt lat="44.55798" lon="2.30338">
        <ele>484.64</ele>
        <time>2013-09-27T15:06:14Z</time>
      </trkpt>
      <trkpt lat="44.55791" lon="2.30336">
        <ele>483.68</ele>
        <time>2013-09-27T15:06:16Z</time>
      </trkpt>
      <trkpt lat="44.55778" lon="2.30333">
        <ele>482.72</ele>
        <time>2013-09-27T15:06:20Z</time>
      </trkpt>
      <trkpt lat="44.55772" lon="2.30333">
        <ele>481.76</ele>
        <time>2013-09-27T15:06:22Z</time>
      </trkpt>
      <trkpt lat="44.5576" lon="2.30349">
        <ele>484.64</ele>
        <time>2013-09-27T15:06:29Z</time>
      </trkpt>
      <trkpt lat="44.55756" lon="2.30359">
        <ele>486.56</ele>
        <time>2013-09-27T15:06:33Z</time>
      </trkpt>
      <trkpt lat="44.5574" lon="2.30389">
        <ele>488.01</ele>
        <time>2013-09-27T15:06:44Z</time>
      </trkpt>
      <trkpt lat="44.55724" lon="2.30417">
        <ele>489.93</ele>
        <time>2013-09-27T15:06:54Z</time>
      </trkpt>
      <trkpt lat="44.55705" lon="2.30451">
        <ele>489.45</ele>
        <time>2013-09-27T15:07:04Z</time>
      </trkpt>
      <trkpt lat="44.55694" lon="2.3049">
        <ele>488.49</ele>
        <time>2013-09-27T15:07:14Z</time>
      </trkpt>
      <trkpt lat="44.55672" lon="2.30496">
        <ele>487.53</ele>
        <time>2013-09-27T15:07:24Z</time>
      </trkpt>
      <trkpt lat="44.55671" lon="2.30495">
        <ele>488.01</ele>
        <time>2013-09-27T15:07:29Z</time>
      </trkpt>
      <trkpt lat="44.55668" lon="2.305">
        <ele>486.56</ele>
        <time>2013-09-27T15:07:32Z</time>
      </trkpt>
      <trkpt lat="44.55667" lon="2.30502">
        <ele>486.08</ele>
        <time>2013-09-27T15:07:33Z</time>
      </trkpt>
      <trkpt lat="44.55656" lon="2.3051">
        <ele>485.12</ele>
        <time>2013-09-27T15:07:37Z</time>
      </trkpt>
      <trkpt lat="44.55652" lon="2.30511">
        <ele>483.68</ele>
        <time>2013-09-27T15:07:38Z</time>
      </trkpt>
      <trkpt lat="44.55632" lon="2.30512">
        <ele>485.12</ele>
        <time>2013-09-27T15:07:45Z</time>
      </trkpt>
      <trkpt lat="44.5563" lon="2.30508">
        <ele>484.64</ele>
        <time>2013-09-27T15:07:46Z</time>
      </trkpt>
      <trkpt lat="44.55627" lon="2.30505">
        <ele>484.16</ele>
        <time>2013-09-27T15:07:47Z</time>
      </trkpt>
      <trkpt lat="44.55624" lon="2.30503">
        <ele>483.68</ele>
        <time>2013-09-27T15:07:48Z</time>
      </trkpt>
      <trkpt lat="44.55621" lon="2.30502">
        <ele>483.2</ele>
        <time>2013-09-27T15:07:49Z</time>
      </trkpt>
      <trkpt lat="44.5559" lon="2.3051">
        <ele>481.76</ele>
        <time>2013-09-27T15:07:59Z</time>
      </trkpt>
      <trkpt lat="44.55584" lon="2.30515">
        <ele>480.32</ele>
        <time>2013-09-27T15:08:01Z</time>
      </trkpt>
      <trkpt lat="44.55558" lon="2.30523">
        <ele>479.35</ele>
        <time>2013-09-27T15:08:09Z</time>
      </trkpt>
      <trkpt lat="44.55548" lon="2.30524">
        <ele>477.43</ele>
        <time>2013-09-27T15:08:12Z</time>
      </trkpt>
      <trkpt lat="44.55541" lon="2.30525">
        <ele>475.99</ele>
        <time>2013-09-27T15:08:14Z</time>
      </trkpt>
      <trkpt lat="44.55502" lon="2.30537">
        <ele>475.51</ele>
        <time>2013-09-27T15:08:27Z</time>
      </trkpt>
      <trkpt lat="44.55473" lon="2.30534">
        <ele>475.03</ele>
        <time>2013-09-27T15:08:36Z</time>
      </trkpt>
      <trkpt lat="44.55455" lon="2.30522">
        <ele>477.43</ele>
        <time>2013-09-27T15:08:44Z</time>
      </trkpt>
      <trkpt lat="44.55453" lon="2.3052">
        <ele>478.39</ele>
        <time>2013-09-27T15:08:45Z</time>
      </trkpt>
      <trkpt lat="44.55451" lon="2.30518">
        <ele>478.39</ele>
        <time>2013-09-27T15:08:46Z</time>
      </trkpt>
      <trkpt lat="44.55437" lon="2.30508">
        <ele>480.32</ele>
        <time>2013-09-27T15:08:53Z</time>
      </trkpt>
      <trkpt lat="44.55434" lon="2.30507">
        <ele>480.8</ele>
        <time>2013-09-27T15:08:54Z</time>
      </trkpt>
      <trkpt lat="44.55432" lon="2.30506">
        <ele>483.2</ele>
        <time>2013-09-27T15:08:55Z</time>
      </trkpt>
      <trkpt lat="44.5543" lon="2.30504">
        <ele>481.28</ele>
        <time>2013-09-27T15:08:56Z</time>
      </trkpt>
      <trkpt lat="44.55428" lon="2.30503">
        <ele>482.72</ele>
        <time>2013-09-27T15:08:57Z</time>
      </trkpt>
      <trkpt lat="44.55425" lon="2.30502">
        <ele>482.72</ele>
        <time>2013-09-27T15:08:58Z</time>
      </trkpt>
      <trkpt lat="44.55424" lon="2.305">
        <ele>483.2</ele>
        <time>2013-09-27T15:08:59Z</time>
      </trkpt>
      <trkpt lat="44.55423" lon="2.30499">
        <ele>482.72</ele>
        <time>2013-09-27T15:09:00Z</time>
      </trkpt>
      <trkpt lat="44.55414" lon="2.30488">
        <ele>484.64</ele>
        <time>2013-09-27T15:09:10Z</time>
      </trkpt>
      <trkpt lat="44.55412" lon="2.30487">
        <ele>485.12</ele>
        <time>2013-09-27T15:09:11Z</time>
      </trkpt>
      <trkpt lat="44.55407" lon="2.30485">
        <ele>486.08</ele>
        <time>2013-09-27T15:09:24Z</time>
      </trkpt>
      <trkpt lat="44.55407" lon="2.30483">
        <ele>485.12</ele>
        <time>2013-09-27T15:09:35Z</time>
      </trkpt>
      <trkpt lat="44.55405" lon="2.30481">
        <ele>485.12</ele>
        <time>2013-09-27T15:09:37Z</time>
      </trkpt>
      <trkpt lat="44.55404" lon="2.30481">
        <ele>484.64</ele>
        <time>2013-09-27T15:09:38Z</time>
      </trkpt>
      <trkpt lat="44.55399" lon="2.3048">
        <ele>484.16</ele>
        <time>2013-09-27T15:09:52Z</time>
      </trkpt>
      <trkpt lat="44.554" lon="2.30479">
        <ele>483.68</ele>
        <time>2013-09-27T15:10:24Z</time>
      </trkpt>
      <trkpt lat="44.55401" lon="2.30479">
        <ele>484.64</ele>
        <time>2013-09-27T15:10:25Z</time>
      </trkpt>
      <trkpt lat="44.55402" lon="2.30478">
        <ele>484.64</ele>
        <time>2013-09-27T15:10:26Z</time>
      </trkpt>
      <trkpt lat="44.554" lon="2.30471">
        <ele>480.8</ele>
        <time>2013-09-27T15:10:37Z</time>
      </trkpt>
      <trkpt lat="44.55398" lon="2.3047">
        <ele>480.8</ele>
        <time>2013-09-27T15:10:38Z</time>
      </trkpt>
      <trkpt lat="44.55397" lon="2.30469">
        <ele>480.32</ele>
        <time>2013-09-27T15:10:39Z</time>
      </trkpt>
      <trkpt lat="44.55395" lon="2.30468">
        <ele>479.35</ele>
        <time>2013-09-27T15:10:40Z</time>
      </trkpt>
      <trkpt lat="44.55394" lon="2.30467">
        <ele>479.35</ele>
        <time>2013-09-27T15:10:41Z</time>
      </trkpt>
      <trkpt lat="44.55392" lon="2.30466">
        <ele>478.87</ele>
        <time>2013-09-27T15:10:42Z</time>
      </trkpt>
      <trkpt lat="44.55391" lon="2.30464">
        <ele>477.43</ele>
        <time>2013-09-27T15:10:43Z</time>
      </trkpt>
      <trkpt lat="44.5539" lon="2.30463">
        <ele>477.43</ele>
        <time>2013-09-27T15:10:44Z</time>
      </trkpt>
      <trkpt lat="44.55389" lon="2.30461">
        <ele>476.47</ele>
        <time>2013-09-27T15:10:45Z</time>
      </trkpt>
      <trkpt lat="44.55388" lon="2.30459">
        <ele>476.47</ele>
        <time>2013-09-27T15:10:46Z</time>
      </trkpt>
      <trkpt lat="44.55386" lon="2.30455">
        <ele>475.51</ele>
        <time>2013-09-27T15:10:48Z</time>
      </trkpt>
      <trkpt lat="44.55384" lon="2.30454">
        <ele>474.55</ele>
        <time>2013-09-27T15:10:49Z</time>
      </trkpt>
      <trkpt lat="44.55383" lon="2.30453">
        <ele>474.07</ele>
        <time>2013-09-27T15:10:50Z</time>
      </trkpt>
      <trkpt lat="44.55381" lon="2.30452">
        <ele>473.11</ele>
        <time>2013-09-27T15:10:51Z</time>
      </trkpt>
      <trkpt lat="44.5538" lon="2.3045">
        <ele>472.63</ele>
        <time>2013-09-27T15:10:52Z</time>
      </trkpt>
      <trkpt lat="44.5538" lon="2.30448">
        <ele>472.14</ele>
        <time>2013-09-27T15:10:53Z</time>
      </trkpt>
      <trkpt lat="44.55378" lon="2.30446">
        <ele>470.7</ele>
        <time>2013-09-27T15:10:56Z</time>
      </trkpt>
      <trkpt lat="44.55377" lon="2.30445">
        <ele>470.22</ele>
        <time>2013-09-27T15:10:57Z</time>
      </trkpt>
      <trkpt lat="44.55376" lon="2.30445">
        <ele>470.22</ele>
        <time>2013-09-27T15:10:58Z</time>
      </trkpt>
      <trkpt lat="44.55375" lon="2.30445">
        <ele>469.26</ele>
        <time>2013-09-27T15:10:59Z</time>
      </trkpt>
      <trkpt lat="44.55373" lon="2.30445">
        <ele>469.26</ele>
        <time>2013-09-27T15:11:00Z</time>
      </trkpt>
      <trkpt lat="44.55369" lon="2.30447">
        <ele>468.3</ele>
        <time>2013-09-27T15:11:04Z</time>
      </trkpt>
      <trkpt lat="44.55368" lon="2.30448">
        <ele>467.82</ele>
        <time>2013-09-27T15:11:05Z</time>
      </trkpt>
      <trkpt lat="44.55362" lon="2.3045">
        <ele>466.38</ele>
        <time>2013-09-27T15:11:16Z</time>
      </trkpt>
      <trkpt lat="44.5536" lon="2.30451">
        <ele>464.45</ele>
        <time>2013-09-27T15:11:18Z</time>
      </trkpt>
      <trkpt lat="44.5536" lon="2.30453">
        <ele>464.45</ele>
        <time>2013-09-27T15:11:19Z</time>
      </trkpt>
      <trkpt lat="44.55353" lon="2.30465">
        <ele>463.49</ele>
        <time>2013-09-27T15:11:25Z</time>
      </trkpt>
      <trkpt lat="44.55362" lon="2.30491">
        <ele>464.93</ele>
        <time>2013-09-27T15:11:35Z</time>
      </trkpt>
      <trkpt lat="44.55362" lon="2.30498">
        <ele>464.93</ele>
        <time>2013-09-27T15:11:38Z</time>
      </trkpt>
      <trkpt lat="44.55365" lon="2.30506">
        <ele>466.38</ele>
        <time>2013-09-27T15:11:41Z</time>
      </trkpt>
      <trkpt lat="44.55372" lon="2.30527">
        <ele>468.3</ele>
        <time>2013-09-27T15:11:50Z</time>
      </trkpt>
      <trkpt lat="44.55372" lon="2.3053">
        <ele>469.26</ele>
        <time>2013-09-27T15:11:53Z</time>
      </trkpt>
      <trkpt lat="44.55375" lon="2.30534">
        <ele>468.3</ele>
        <time>2013-09-27T15:11:57Z</time>
      </trkpt>
      <trkpt lat="44.55385" lon="2.30539">
        <ele>471.18</ele>
        <time>2013-09-27T15:12:05Z</time>
      </trkpt>
      <trkpt lat="44.5539" lon="2.30541">
        <ele>471.18</ele>
        <time>2013-09-27T15:12:08Z</time>
      </trkpt>
      <trkpt lat="44.55399" lon="2.30547">
        <ele>471.18</ele>
        <time>2013-09-27T15:12:14Z</time>
      </trkpt>
      <trkpt lat="44.55401" lon="2.3055">
        <ele>470.7</ele>
        <time>2013-09-27T15:12:15Z</time>
      </trkpt>
      <trkpt lat="44.55407" lon="2.30558">
        <ele>470.7</ele>
        <time>2013-09-27T15:12:20Z</time>
      </trkpt>
      <trkpt lat="44.55414" lon="2.30568">
        <ele>468.3</ele>
        <time>2013-09-27T15:12:27Z</time>
      </trkpt>
      <trkpt lat="44.55431" lon="2.30578">
        <ele>467.82</ele>
        <time>2013-09-27T15:12:37Z</time>
      </trkpt>
      <trkpt lat="44.55438" lon="2.3058">
        <ele>466.86</ele>
        <time>2013-09-27T15:12:40Z</time>
      </trkpt>
      <trkpt lat="44.55443" lon="2.30581">
        <ele>466.86</ele>
        <time>2013-09-27T15:12:42Z</time>
      </trkpt>
      <trkpt lat="44.55445" lon="2.30581">
        <ele>466.86</ele>
        <time>2013-09-27T15:12:49Z</time>
      </trkpt>
      <trkpt lat="44.55446" lon="2.30581">
        <ele>466.86</ele>
        <time>2013-09-27T15:12:51Z</time>
      </trkpt>
      <trkpt lat="44.55459" lon="2.30591">
        <ele>467.34</ele>
        <time>2013-09-27T15:12:57Z</time>
      </trkpt>
      <trkpt lat="44.55477" lon="2.30598">
        <ele>464.93</ele>
        <time>2013-09-27T15:13:04Z</time>
      </trkpt>
      <trkpt lat="44.5549" lon="2.30599">
        <ele>462.05</ele>
        <time>2013-09-27T15:13:10Z</time>
      </trkpt>
      <trkpt lat="44.55493" lon="2.30598">
        <ele>461.57</ele>
        <time>2013-09-27T15:13:11Z</time>
      </trkpt>
      <trkpt lat="44.55496" lon="2.30598">
        <ele>461.09</ele>
        <time>2013-09-27T15:13:12Z</time>
      </trkpt>
      <trkpt lat="44.55524" lon="2.30601">
        <ele>459.65</ele>
        <time>2013-09-27T15:13:23Z</time>
      </trkpt>
      <trkpt lat="44.55547" lon="2.30612">
        <ele>457.24</ele>
        <time>2013-09-27T15:13:33Z</time>
      </trkpt>
      <trkpt lat="44.55555" lon="2.30632">
        <ele>454.36</ele>
        <time>2013-09-27T15:13:38Z</time>
      </trkpt>
      <trkpt lat="44.55558" lon="2.30644">
        <ele>453.4</ele>
        <time>2013-09-27T15:13:41Z</time>
      </trkpt>
      <trkpt lat="44.5557" lon="2.30679">
        <ele>450.03</ele>
        <time>2013-09-27T15:13:50Z</time>
      </trkpt>
      <trkpt lat="44.55571" lon="2.30683">
        <ele>449.55</ele>
        <time>2013-09-27T15:13:51Z</time>
      </trkpt>
      <trkpt lat="44.55577" lon="2.30707">
        <ele>447.63</ele>
        <time>2013-09-27T15:14:02Z</time>
      </trkpt>
      <trkpt lat="44.55593" lon="2.3072">
        <ele>447.63</ele>
        <time>2013-09-27T15:14:11Z</time>
      </trkpt>
      <trkpt lat="44.55609" lon="2.30731">
        <ele>448.59</ele>
        <time>2013-09-27T15:14:23Z</time>
      </trkpt>
      <trkpt lat="44.5561" lon="2.30732">
        <ele>448.59</ele>
        <time>2013-09-27T15:14:25Z</time>
      </trkpt>
      <trkpt lat="44.55617" lon="2.3074">
        <ele>450.03</ele>
        <time>2013-09-27T15:14:29Z</time>
      </trkpt>
      <trkpt lat="44.55636" lon="2.30771">
        <ele>446.67</ele>
        <time>2013-09-27T15:14:37Z</time>
      </trkpt>
      <trkpt lat="44.55656" lon="2.30791">
        <ele>443.79</ele>
        <time>2013-09-27T15:14:44Z</time>
      </trkpt>
      <trkpt lat="44.55659" lon="2.30794">
        <ele>443.79</ele>
        <time>2013-09-27T15:14:45Z</time>
      </trkpt>
      <trkpt lat="44.55671" lon="2.30792">
        <ele>442.34</ele>
        <time>2013-09-27T15:14:50Z</time>
      </trkpt>
      <trkpt lat="44.55694" lon="2.30783">
        <ele>440.9</ele>
        <time>2013-09-27T15:15:03Z</time>
      </trkpt>
      <trkpt lat="44.55697" lon="2.30783">
        <ele>440.9</ele>
        <time>2013-09-27T15:15:04Z</time>
      </trkpt>
      <trkpt lat="44.55708" lon="2.30781">
        <ele>439.94</ele>
        <time>2013-09-27T15:15:08Z</time>
      </trkpt>
      <trkpt lat="44.55715" lon="2.3079">
        <ele>435.13</ele>
        <time>2013-09-27T15:15:12Z</time>
      </trkpt>
      <trkpt lat="44.55716" lon="2.30793">
        <ele>434.17</ele>
        <time>2013-09-27T15:15:13Z</time>
      </trkpt>
      <trkpt lat="44.55717" lon="2.30796">
        <ele>433.21</ele>
        <time>2013-09-27T15:15:14Z</time>
      </trkpt>
      <trkpt lat="44.55719" lon="2.30804">
        <ele>430.81</ele>
        <time>2013-09-27T15:15:16Z</time>
      </trkpt>
      <trkpt lat="44.55713" lon="2.30822">
        <ele>427.44</ele>
        <time>2013-09-27T15:15:21Z</time>
      </trkpt>
      <trkpt lat="44.55712" lon="2.30828">
        <ele>424.56</ele>
        <time>2013-09-27T15:15:23Z</time>
      </trkpt>
      <trkpt lat="44.55703" lon="2.30849">
        <ele>424.56</ele>
        <time>2013-09-27T15:15:29Z</time>
      </trkpt>
      <trkpt lat="44.55684" lon="2.30878">
        <ele>421.68</ele>
        <time>2013-09-27T15:15:37Z</time>
      </trkpt>
      <trkpt lat="44.55676" lon="2.30897">
        <ele>418.31</ele>
        <time>2013-09-27T15:15:42Z</time>
      </trkpt>
      <trkpt lat="44.5567" lon="2.30909">
        <ele>416.87</ele>
        <time>2013-09-27T15:15:51Z</time>
      </trkpt>
      <trkpt lat="44.55668" lon="2.30911">
        <ele>416.39</ele>
        <time>2013-09-27T15:15:52Z</time>
      </trkpt>
      <trkpt lat="44.55666" lon="2.30914">
        <ele>415.91</ele>
        <time>2013-09-27T15:15:53Z</time>
      </trkpt>
      <trkpt lat="44.55664" lon="2.30917">
        <ele>415.43</ele>
        <time>2013-09-27T15:15:54Z</time>
      </trkpt>
      <trkpt lat="44.55662" lon="2.30919">
        <ele>414.47</ele>
        <time>2013-09-27T15:15:55Z</time>
      </trkpt>
      <trkpt lat="44.5566" lon="2.30921">
        <ele>414.47</ele>
        <time>2013-09-27T15:15:56Z</time>
      </trkpt>
      <trkpt lat="44.55658" lon="2.30924">
        <ele>413.5</ele>
        <time>2013-09-27T15:15:57Z</time>
      </trkpt>
      <trkpt lat="44.55644" lon="2.30933">
        <ele>411.58</ele>
        <time>2013-09-27T15:16:01Z</time>
      </trkpt>
      <trkpt lat="44.5563" lon="2.3094">
        <ele>408.22</ele>
        <time>2013-09-27T15:16:06Z</time>
      </trkpt>
      <trkpt lat="44.55609" lon="2.30941">
        <ele>404.37</ele>
        <time>2013-09-27T15:16:13Z</time>
      </trkpt>
      <trkpt lat="44.55598" lon="2.30942">
        <ele>402.93</ele>
        <time>2013-09-27T15:16:16Z</time>
      </trkpt>
      <trkpt lat="44.55581" lon="2.30955">
        <ele>401.01</ele>
        <time>2013-09-27T15:16:22Z</time>
      </trkpt>
      <trkpt lat="44.55573" lon="2.30978">
        <ele>398.12</ele>
        <time>2013-09-27T15:16:27Z</time>
      </trkpt>
      <trkpt lat="44.55562" lon="2.31004">
        <ele>394.76</ele>
        <time>2013-09-27T15:16:32Z</time>
      </trkpt>
      <trkpt lat="44.55552" lon="2.31019">
        <ele>391.39</ele>
        <time>2013-09-27T15:16:36Z</time>
      </trkpt>
      <trkpt lat="44.55537" lon="2.31048">
        <ele>387.55</ele>
        <time>2013-09-27T15:16:43Z</time>
      </trkpt>
      <trkpt lat="44.55528" lon="2.31065">
        <ele>386.59</ele>
        <time>2013-09-27T15:16:47Z</time>
      </trkpt>
      <trkpt lat="44.5552" lon="2.31073">
        <ele>386.11</ele>
        <time>2013-09-27T15:16:50Z</time>
      </trkpt>
      <trkpt lat="44.55517" lon="2.31073">
        <ele>385.15</ele>
        <time>2013-09-27T15:16:51Z</time>
      </trkpt>
      <trkpt lat="44.55513" lon="2.3107">
        <ele>384.18</ele>
        <time>2013-09-27T15:16:53Z</time>
      </trkpt>
      <trkpt lat="44.5551" lon="2.31064">
        <ele>383.22</ele>
        <time>2013-09-27T15:16:55Z</time>
      </trkpt>
      <trkpt lat="44.55507" lon="2.31061">
        <ele>382.74</ele>
        <time>2013-09-27T15:16:57Z</time>
      </trkpt>
      <trkpt lat="44.55503" lon="2.31071">
        <ele>381.3</ele>
        <time>2013-09-27T15:17:01Z</time>
      </trkpt>
      <trkpt lat="44.55491" lon="2.31106">
        <ele>377.45</ele>
        <time>2013-09-27T15:17:09Z</time>
      </trkpt>
      <trkpt lat="44.55482" lon="2.31134">
        <ele>373.61</ele>
        <time>2013-09-27T15:17:14Z</time>
      </trkpt>
      <trkpt lat="44.5548" lon="2.31138">
        <ele>373.61</ele>
        <time>2013-09-27T15:17:15Z</time>
      </trkpt>
      <trkpt lat="44.55473" lon="2.31148">
        <ele>372.65</ele>
        <time>2013-09-27T15:17:24Z</time>
      </trkpt>
      <trkpt lat="44.55458" lon="2.31165">
        <ele>368.8</ele>
        <time>2013-09-27T15:17:31Z</time>
      </trkpt>
      <trkpt lat="44.55455" lon="2.31169">
        <ele>368.32</ele>
        <time>2013-09-27T15:17:32Z</time>
      </trkpt>
      <trkpt lat="44.55436" lon="2.31186">
        <ele>365.44</ele>
        <time>2013-09-27T15:17:38Z</time>
      </trkpt>
      <trkpt lat="44.55421" lon="2.31195">
        <ele>362.07</ele>
        <time>2013-09-27T15:17:43Z</time>
      </trkpt>
      <trkpt lat="44.55418" lon="2.31198">
        <ele>362.07</ele>
        <time>2013-09-27T15:17:44Z</time>
      </trkpt>
      <trkpt lat="44.55414" lon="2.31205">
        <ele>361.59</ele>
        <time>2013-09-27T15:17:46Z</time>
      </trkpt>
      <trkpt lat="44.55404" lon="2.31213">
        <ele>358.71</ele>
        <time>2013-09-27T15:17:50Z</time>
      </trkpt>
      <trkpt lat="44.55384" lon="2.31216">
        <ele>354.86</ele>
        <time>2013-09-27T15:17:56Z</time>
      </trkpt>
      <trkpt lat="44.55372" lon="2.31216">
        <ele>353.9</ele>
        <time>2013-09-27T15:17:59Z</time>
      </trkpt>
      <trkpt lat="44.55359" lon="2.31201">
        <ele>350.54</ele>
        <time>2013-09-27T15:18:04Z</time>
      </trkpt>
      <trkpt lat="44.55358" lon="2.31197">
        <ele>350.06</ele>
        <time>2013-09-27T15:18:05Z</time>
      </trkpt>
      <trkpt lat="44.55355" lon="2.31177">
        <ele>347.65</ele>
        <time>2013-09-27T15:18:10Z</time>
      </trkpt>
      <trkpt lat="44.55351" lon="2.31171">
        <ele>344.77</ele>
        <time>2013-09-27T15:18:13Z</time>
      </trkpt>
      <trkpt lat="44.55342" lon="2.31179">
        <ele>341.89</ele>
        <time>2013-09-27T15:18:17Z</time>
      </trkpt>
      <trkpt lat="44.55327" lon="2.31195">
        <ele>338.04</ele>
        <time>2013-09-27T15:18:22Z</time>
      </trkpt>
      <trkpt lat="44.55311" lon="2.31215">
        <ele>335.16</ele>
        <time>2013-09-27T15:18:28Z</time>
      </trkpt>
      <trkpt lat="44.55299" lon="2.31234">
        <ele>332.75</ele>
        <time>2013-09-27T15:18:33Z</time>
      </trkpt>
      <trkpt lat="44.55288" lon="2.31254">
        <ele>330.35</ele>
        <time>2013-09-27T15:18:38Z</time>
      </trkpt>
      <trkpt lat="44.55281" lon="2.31274">
        <ele>326.02</ele>
        <time>2013-09-27T15:18:42Z</time>
      </trkpt>
      <trkpt lat="44.55272" lon="2.3129">
        <ele>324.1</ele>
        <time>2013-09-27T15:18:46Z</time>
      </trkpt>
      <trkpt lat="44.55241" lon="2.31296">
        <ele>320.74</ele>
        <time>2013-09-27T15:18:54Z</time>
      </trkpt>
      <trkpt lat="44.55232" lon="2.31297">
        <ele>319.78</ele>
        <time>2013-09-27T15:18:56Z</time>
      </trkpt>
      <trkpt lat="44.55222" lon="2.3131">
        <ele>315.93</ele>
        <time>2013-09-27T15:19:01Z</time>
      </trkpt>
      <trkpt lat="44.55222" lon="2.31315">
        <ele>314.97</ele>
        <time>2013-09-27T15:19:02Z</time>
      </trkpt>
      <trkpt lat="44.5522" lon="2.31326">
        <ele>313.53</ele>
        <time>2013-09-27T15:19:04Z</time>
      </trkpt>
      <trkpt lat="44.55217" lon="2.31354">
        <ele>310.64</ele>
        <time>2013-09-27T15:19:09Z</time>
      </trkpt>
      <trkpt lat="44.55218" lon="2.31371">
        <ele>309.2</ele>
        <time>2013-09-27T15:19:12Z</time>
      </trkpt>
      <trkpt lat="44.55229" lon="2.31426">
        <ele>305.84</ele>
        <time>2013-09-27T15:19:24Z</time>
      </trkpt>
      <trkpt lat="44.55249" lon="2.3146">
        <ele>306.32</ele>
        <time>2013-09-27T15:19:34Z</time>
      </trkpt>
      <trkpt lat="44.55283" lon="2.3149">
        <ele>303.43</ele>
        <time>2013-09-27T15:19:46Z</time>
      </trkpt>
      <trkpt lat="44.55294" lon="2.31499">
        <ele>302.47</ele>
        <time>2013-09-27T15:19:50Z</time>
      </trkpt>
      <trkpt lat="44.55287" lon="2.31511">
        <ele>301.51</ele>
        <time>2013-09-27T15:19:56Z</time>
      </trkpt>
      <trkpt lat="44.55267" lon="2.31513">
        <ele>300.07</ele>
        <time>2013-09-27T15:20:01Z</time>
      </trkpt>
      <trkpt lat="44.55227" lon="2.31506">
        <ele>296.7</ele>
        <time>2013-09-27T15:20:12Z</time>
      </trkpt>
      <trkpt lat="44.55187" lon="2.31515">
        <ele>293.82</ele>
        <time>2013-09-27T15:20:24Z</time>
      </trkpt>
      <trkpt lat="44.55147" lon="2.31493">
        <ele>290.94</ele>
        <time>2013-09-27T15:20:36Z</time>
      </trkpt>
      <trkpt lat="44.55111" lon="2.31456">
        <ele>289.01</ele>
        <time>2013-09-27T15:20:48Z</time>
      </trkpt>
      <trkpt lat="44.55075" lon="2.31441">
        <ele>287.57</ele>
        <time>2013-09-27T15:20:59Z</time>
      </trkpt>
      <trkpt lat="44.55042" lon="2.3144">
        <ele>289.49</ele>
        <time>2013-09-27T15:21:09Z</time>
      </trkpt>
      <trkpt lat="44.5502" lon="2.31422">
        <ele>291.42</ele>
        <time>2013-09-27T15:21:18Z</time>
      </trkpt>
      <trkpt lat="44.55003" lon="2.31372">
        <ele>290.94</ele>
        <time>2013-09-27T15:21:31Z</time>
      </trkpt>
      <trkpt lat="44.55001" lon="2.31368">
        <ele>290.94</ele>
        <time>2013-09-27T15:21:32Z</time>
      </trkpt>
      <trkpt lat="44.54992" lon="2.31342">
        <ele>290.46</ele>
        <time>2013-09-27T15:21:38Z</time>
      </trkpt>
      <trkpt lat="44.5499" lon="2.31337">
        <ele>290.46</ele>
        <time>2013-09-27T15:21:39Z</time>
      </trkpt>
      <trkpt lat="44.54988" lon="2.31333">
        <ele>290.94</ele>
        <time>2013-09-27T15:21:40Z</time>
      </trkpt>
      <trkpt lat="44.54986" lon="2.31329">
        <ele>291.42</ele>
        <time>2013-09-27T15:21:41Z</time>
      </trkpt>
      <trkpt lat="44.54985" lon="2.31326">
        <ele>290.94</ele>
        <time>2013-09-27T15:21:42Z</time>
      </trkpt>
      <trkpt lat="44.54982" lon="2.31323">
        <ele>290.94</ele>
        <time>2013-09-27T15:21:43Z</time>
      </trkpt>
      <trkpt lat="44.54981" lon="2.31319">
        <ele>290.46</ele>
        <time>2013-09-27T15:21:44Z</time>
      </trkpt>
      <trkpt lat="44.5498" lon="2.31315">
        <ele>290.94</ele>
        <time>2013-09-27T15:21:45Z</time>
      </trkpt>
      <trkpt lat="44.54978" lon="2.31311">
        <ele>290.46</ele>
        <time>2013-09-27T15:21:46Z</time>
      </trkpt>
      <trkpt lat="44.54977" lon="2.31307">
        <ele>289.97</ele>
        <time>2013-09-27T15:21:47Z</time>
      </trkpt>
      <trkpt lat="44.54975" lon="2.31302">
        <ele>290.94</ele>
        <time>2013-09-27T15:21:48Z</time>
      </trkpt>
      <trkpt lat="44.54967" lon="2.31279">
        <ele>289.49</ele>
        <time>2013-09-27T15:21:53Z</time>
      </trkpt>
      <trkpt lat="44.54959" lon="2.31223">
        <ele>287.09</ele>
        <time>2013-09-27T15:22:05Z</time>
      </trkpt>
      <trkpt lat="44.54955" lon="2.31193">
        <ele>286.61</ele>
        <time>2013-09-27T15:22:11Z</time>
      </trkpt>
      <trkpt lat="44.54953" lon="2.31188">
        <ele>286.61</ele>
        <time>2013-09-27T15:22:12Z</time>
      </trkpt>
      <trkpt lat="44.54952" lon="2.31183">
        <ele>286.61</ele>
        <time>2013-09-27T15:22:13Z</time>
      </trkpt>
      <trkpt lat="44.54952" lon="2.31178">
        <ele>286.13</ele>
        <time>2013-09-27T15:22:14Z</time>
      </trkpt>
      <trkpt lat="44.54951" lon="2.31174">
        <ele>286.61</ele>
        <time>2013-09-27T15:22:15Z</time>
      </trkpt>
      <trkpt lat="44.54951" lon="2.31171">
        <ele>286.13</ele>
        <time>2013-09-27T15:22:16Z</time>
      </trkpt>
      <trkpt lat="44.54952" lon="2.31167">
        <ele>285.65</ele>
        <time>2013-09-27T15:22:17Z</time>
      </trkpt>
      <trkpt lat="44.54954" lon="2.31165">
        <ele>284.69</ele>
        <time>2013-09-27T15:22:18Z</time>
      </trkpt>
      <trkpt lat="44.54955" lon="2.31163">
        <ele>284.69</ele>
        <time>2013-09-27T15:22:19Z</time>
      </trkpt>
      <trkpt lat="44.54965" lon="2.31183">
        <ele>282.28</ele>
        <time>2013-09-27T15:22:26Z</time>
      </trkpt>
      <trkpt lat="44.54975" lon="2.31179">
        <ele>282.28</ele>
        <time>2013-09-27T15:22:39Z</time>
      </trkpt>
      <trkpt lat="44.54975" lon="2.31178">
        <ele>281.32</ele>
        <time>2013-09-27T15:22:40Z</time>
      </trkpt>
      <trkpt lat="44.54975" lon="2.31167">
        <ele>281.8</ele>
        <time>2013-09-27T15:22:44Z</time>
      </trkpt>
      <trkpt lat="44.54975" lon="2.31127">
        <ele>281.32</ele>
        <time>2013-09-27T15:22:55Z</time>
      </trkpt>
      <trkpt lat="44.54998" lon="2.31089">
        <ele>280.36</ele>
        <time>2013-09-27T15:23:06Z</time>
      </trkpt>
      <trkpt lat="44.55012" lon="2.31043">
        <ele>279.88</ele>
        <time>2013-09-27T15:23:19Z</time>
      </trkpt>
      <trkpt lat="44.5501" lon="2.30998">
        <ele>279.4</ele>
        <time>2013-09-27T15:23:29Z</time>
      </trkpt>
      <trkpt lat="44.55005" lon="2.30957">
        <ele>277.48</ele>
        <time>2013-09-27T15:23:40Z</time>
      </trkpt>
      <trkpt lat="44.54997" lon="2.30946">
        <ele>277.48</ele>
        <time>2013-09-27T15:23:43Z</time>
      </trkpt>
      <trkpt lat="44.54967" lon="2.30932">
        <ele>275.56</ele>
        <time>2013-09-27T15:23:56Z</time>
      </trkpt>
      <trkpt lat="44.54938" lon="2.30903">
        <ele>274.11</ele>
        <time>2013-09-27T15:24:08Z</time>
      </trkpt>
      <trkpt lat="44.54914" lon="2.30874">
        <ele>272.19</ele>
        <time>2013-09-27T15:24:22Z</time>
      </trkpt>
      <trkpt lat="44.54912" lon="2.30874">
        <ele>271.23</ele>
        <time>2013-09-27T15:24:24Z</time>
      </trkpt>
      <trkpt lat="44.54909" lon="2.30877">
        <ele>269.79</ele>
        <time>2013-09-27T15:24:26Z</time>
      </trkpt>
      <trkpt lat="44.54905" lon="2.30875">
        <ele>269.79</ele>
        <time>2013-09-27T15:24:30Z</time>
      </trkpt>
      <trkpt lat="44.54893" lon="2.30873">
        <ele>269.79</ele>
        <time>2013-09-27T15:24:35Z</time>
      </trkpt>
      <trkpt lat="44.54869" lon="2.30874">
        <ele>269.31</ele>
        <time>2013-09-27T15:24:46Z</time>
      </trkpt>
      <trkpt lat="44.54866" lon="2.30857">
        <ele>271.71</ele>
        <time>2013-09-27T15:24:51Z</time>
      </trkpt>
      <trkpt lat="44.54858" lon="2.30844">
        <ele>275.07</ele>
        <time>2013-09-27T15:25:03Z</time>
      </trkpt>
      <trkpt lat="44.54842" lon="2.30837">
        <ele>275.07</ele>
        <time>2013-09-27T15:25:13Z</time>
      </trkpt>
      <trkpt lat="44.54814" lon="2.30822">
        <ele>277.48</ele>
        <time>2013-09-27T15:25:24Z</time>
      </trkpt>
      <trkpt lat="44.54806" lon="2.30818">
        <ele>278.44</ele>
        <time>2013-09-27T15:25:28Z</time>
      </trkpt>
      <trkpt lat="44.54803" lon="2.30817">
        <ele>278.44</ele>
        <time>2013-09-27T15:25:30Z</time>
      </trkpt>
      <trkpt lat="44.5479" lon="2.30807">
        <ele>276.52</ele>
        <time>2013-09-27T15:25:36Z</time>
      </trkpt>
      <trkpt lat="44.54781" lon="2.30783">
        <ele>276.04</ele>
        <time>2013-09-27T15:25:43Z</time>
      </trkpt>
      <trkpt lat="44.54781" lon="2.30777">
        <ele>277.48</ele>
        <time>2013-09-27T15:25:47Z</time>
      </trkpt>
      <trkpt lat="44.54785" lon="2.30763">
        <ele>280.36</ele>
        <time>2013-09-27T15:25:59Z</time>
      </trkpt>
      <trkpt lat="44.54785" lon="2.30762">
        <ele>280.84</ele>
        <time>2013-09-27T15:26:00Z</time>
      </trkpt>
      <trkpt lat="44.54787" lon="2.30751">
        <ele>281.8</ele>
        <time>2013-09-27T15:26:06Z</time>
      </trkpt>
      <trkpt lat="44.54791" lon="2.30744">
        <ele>284.21</ele>
        <time>2013-09-27T15:26:12Z</time>
      </trkpt>
      <trkpt lat="44.54797" lon="2.30739">
        <ele>284.69</ele>
        <time>2013-09-27T15:26:16Z</time>
      </trkpt>
      <trkpt lat="44.54802" lon="2.30734">
        <ele>287.09</ele>
        <time>2013-09-27T15:26:21Z</time>
      </trkpt>
      <trkpt lat="44.54805" lon="2.30718">
        <ele>287.09</ele>
        <time>2013-09-27T15:26:26Z</time>
      </trkpt>
      <trkpt lat="44.54812" lon="2.30704">
        <ele>288.05</ele>
        <time>2013-09-27T15:26:32Z</time>
      </trkpt>
      <trkpt lat="44.54815" lon="2.30695">
        <ele>288.05</ele>
        <time>2013-09-27T15:26:35Z</time>
      </trkpt>
      <trkpt lat="44.54815" lon="2.30677">
        <ele>287.57</ele>
        <time>2013-09-27T15:26:40Z</time>
      </trkpt>
      <trkpt lat="44.5481" lon="2.3066">
        <ele>285.17</ele>
        <time>2013-09-27T15:26:46Z</time>
      </trkpt>
      <trkpt lat="44.54794" lon="2.30654">
        <ele>282.28</ele>
        <time>2013-09-27T15:26:51Z</time>
      </trkpt>
      <trkpt lat="44.54787" lon="2.30648">
        <ele>280.36</ele>
        <time>2013-09-27T15:26:54Z</time>
      </trkpt>
      <trkpt lat="44.54773" lon="2.30626">
        <ele>277.48</ele>
        <time>2013-09-27T15:27:01Z</time>
      </trkpt>
      <trkpt lat="44.54762" lon="2.30614">
        <ele>275.07</ele>
        <time>2013-09-27T15:27:06Z</time>
      </trkpt>
      <trkpt lat="44.54755" lon="2.30597">
        <ele>274.11</ele>
        <time>2013-09-27T15:27:10Z</time>
      </trkpt>
      <trkpt lat="44.54738" lon="2.30589">
        <ele>270.27</ele>
        <time>2013-09-27T15:27:17Z</time>
      </trkpt>
      <trkpt lat="44.54727" lon="2.30586">
        <ele>266.42</ele>
        <time>2013-09-27T15:27:22Z</time>
      </trkpt>
      <trkpt lat="44.54725" lon="2.30585">
        <ele>266.42</ele>
        <time>2013-09-27T15:27:23Z</time>
      </trkpt>
      <trkpt lat="44.5472" lon="2.30581">
        <ele>264.98</ele>
        <time>2013-09-27T15:27:25Z</time>
      </trkpt>
      <trkpt lat="44.54712" lon="2.30578">
        <ele>262.1</ele>
        <time>2013-09-27T15:27:29Z</time>
      </trkpt>
      <trkpt lat="44.54705" lon="2.30585">
        <ele>261.14</ele>
        <time>2013-09-27T15:27:34Z</time>
      </trkpt>
      <trkpt lat="44.54698" lon="2.30585">
        <ele>260.65</ele>
        <time>2013-09-27T15:27:39Z</time>
      </trkpt>
      <trkpt lat="44.54697" lon="2.30581">
        <ele>259.21</ele>
        <time>2013-09-27T15:27:41Z</time>
      </trkpt>
      <trkpt lat="44.54696" lon="2.30575">
        <ele>257.29</ele>
        <time>2013-09-27T15:27:44Z</time>
      </trkpt>
      <trkpt lat="44.54695" lon="2.30571">
        <ele>255.85</ele>
        <time>2013-09-27T15:27:47Z</time>
      </trkpt>
      <trkpt lat="44.5469" lon="2.30561">
        <ele>255.37</ele>
        <time>2013-09-27T15:27:50Z</time>
      </trkpt>
      <trkpt lat="44.54655" lon="2.30498">
        <ele>252.96</ele>
        <time>2013-09-27T15:28:03Z</time>
      </trkpt>
      <trkpt lat="44.54641" lon="2.30449">
        <ele>252</ele>
        <time>2013-09-27T15:28:15Z</time>
      </trkpt>
      <trkpt lat="44.54637" lon="2.30403">
        <ele>250.56</ele>
        <time>2013-09-27T15:28:25Z</time>
      </trkpt>
      <trkpt lat="44.54616" lon="2.30388">
        <ele>249.12</ele>
        <time>2013-09-27T15:28:34Z</time>
      </trkpt>
      <trkpt lat="44.54601" lon="2.30388">
        <ele>248.64</ele>
        <time>2013-09-27T15:28:39Z</time>
      </trkpt>
      <trkpt lat="44.54598" lon="2.30386">
        <ele>248.16</ele>
        <time>2013-09-27T15:28:40Z</time>
      </trkpt>
      <trkpt lat="44.54585" lon="2.30372">
        <ele>247.2</ele>
        <time>2013-09-27T15:28:45Z</time>
      </trkpt>
      <trkpt lat="44.54585" lon="2.30367">
        <ele>246.72</ele>
        <time>2013-09-27T15:28:46Z</time>
      </trkpt>
      <trkpt lat="44.54584" lon="2.30363">
        <ele>246.72</ele>
        <time>2013-09-27T15:28:47Z</time>
      </trkpt>
      <trkpt lat="44.54584" lon="2.30358">
        <ele>246.72</ele>
        <time>2013-09-27T15:28:48Z</time>
      </trkpt>
      <trkpt lat="44.54585" lon="2.30354">
        <ele>246.72</ele>
        <time>2013-09-27T15:28:49Z</time>
      </trkpt>
      <trkpt lat="44.54584" lon="2.3035">
        <ele>246.23</ele>
        <time>2013-09-27T15:28:50Z</time>
      </trkpt>
      <trkpt lat="44.54583" lon="2.30345">
        <ele>246.23</ele>
        <time>2013-09-27T15:28:51Z</time>
      </trkpt>
      <trkpt lat="44.54581" lon="2.3034">
        <ele>246.23</ele>
        <time>2013-09-27T15:28:52Z</time>
      </trkpt>
      <trkpt lat="44.5458" lon="2.30336">
        <ele>246.72</ele>
        <time>2013-09-27T15:28:53Z</time>
      </trkpt>
      <trkpt lat="44.54579" lon="2.30333">
        <ele>245.75</ele>
        <time>2013-09-27T15:28:54Z</time>
      </trkpt>
      <trkpt lat="44.5457" lon="2.30317">
        <ele>246.23</ele>
        <time>2013-09-27T15:29:01Z</time>
      </trkpt>
      <trkpt lat="44.5457" lon="2.30295">
        <ele>246.23</ele>
        <time>2013-09-27T15:29:08Z</time>
      </trkpt>
      <trkpt lat="44.54572" lon="2.30291">
        <ele>245.75</ele>
        <time>2013-09-27T15:29:09Z</time>
      </trkpt>
      <trkpt lat="44.5459" lon="2.30263">
        <ele>246.23</ele>
        <time>2013-09-27T15:29:19Z</time>
      </trkpt>
      <trkpt lat="44.54593" lon="2.30257">
        <ele>245.75</ele>
        <time>2013-09-27T15:29:23Z</time>
      </trkpt>
      <trkpt lat="44.54595" lon="2.30253">
        <ele>245.75</ele>
        <time>2013-09-27T15:29:26Z</time>
      </trkpt>
      <trkpt lat="44.54599" lon="2.3025">
        <ele>245.75</ele>
        <time>2013-09-27T15:29:29Z</time>
      </trkpt>
      <trkpt lat="44.54602" lon="2.30241">
        <ele>246.23</ele>
        <time>2013-09-27T15:29:35Z</time>
      </trkpt>
      <trkpt lat="44.54611" lon="2.30222">
        <ele>246.23</ele>
        <time>2013-09-27T15:29:46Z</time>
      </trkpt>
      <trkpt lat="44.54631" lon="2.30183">
        <ele>245.75</ele>
        <time>2013-09-27T15:29:57Z</time>
      </trkpt>
      <trkpt lat="44.54651" lon="2.30137">
        <ele>245.75</ele>
        <time>2013-09-27T15:30:10Z</time>
      </trkpt>
      <trkpt lat="44.54665" lon="2.30108">
        <ele>245.75</ele>
        <time>2013-09-27T15:30:17Z</time>
      </trkpt>
      <trkpt lat="44.54642" lon="2.30082">
        <ele>245.27</ele>
        <time>2013-09-27T15:30:27Z</time>
      </trkpt>
      <trkpt lat="44.54636" lon="2.30084">
        <ele>245.75</ele>
        <time>2013-09-27T15:30:29Z</time>
      </trkpt>
      <trkpt lat="44.54622" lon="2.30117">
        <ele>245.27</ele>
        <time>2013-09-27T15:30:38Z</time>
      </trkpt>
      <trkpt lat="44.54616" lon="2.30133">
        <ele>245.27</ele>
        <time>2013-09-27T15:30:42Z</time>
      </trkpt>
      <trkpt lat="44.54601" lon="2.30179">
        <ele>245.27</ele>
        <time>2013-09-27T15:30:54Z</time>
      </trkpt>
      <trkpt lat="44.54576" lon="2.30202">
        <ele>245.27</ele>
        <time>2013-09-27T15:31:05Z</time>
      </trkpt>
      <trkpt lat="44.54548" lon="2.30216">
        <ele>245.27</ele>
        <time>2013-09-27T15:31:15Z</time>
      </trkpt>
      <trkpt lat="44.54512" lon="2.30227">
        <ele>245.75</ele>
        <time>2013-09-27T15:31:28Z</time>
      </trkpt>
      <trkpt lat="44.54508" lon="2.30223">
        <ele>246.23</ele>
        <time>2013-09-27T15:31:31Z</time>
      </trkpt>
      <trkpt lat="44.54508" lon="2.30209">
        <ele>247.68</ele>
        <time>2013-09-27T15:31:36Z</time>
      </trkpt>
      <trkpt lat="44.545" lon="2.30206">
        <ele>248.16</ele>
        <time>2013-09-27T15:31:40Z</time>
      </trkpt>
      <trkpt lat="44.54462" lon="2.30206">
        <ele>247.68</ele>
        <time>2013-09-27T15:31:52Z</time>
      </trkpt>
      <trkpt lat="44.54439" lon="2.30221">
        <ele>248.16</ele>
        <time>2013-09-27T15:32:00Z</time>
      </trkpt>
      <trkpt lat="44.54408" lon="2.30256">
        <ele>248.16</ele>
        <time>2013-09-27T15:32:13Z</time>
      </trkpt>
      <trkpt lat="44.54384" lon="2.30298">
        <ele>247.2</ele>
        <time>2013-09-27T15:32:25Z</time>
      </trkpt>
      <trkpt lat="44.54364" lon="2.30336">
        <ele>247.2</ele>
        <time>2013-09-27T15:32:36Z</time>
      </trkpt>
      <trkpt lat="44.54347" lon="2.30371">
        <ele>247.2</ele>
        <time>2013-09-27T15:32:46Z</time>
      </trkpt>
      <trkpt lat="44.54324" lon="2.30416">
        <ele>246.72</ele>
        <time>2013-09-27T15:32:59Z</time>
      </trkpt>
      <trkpt lat="44.54305" lon="2.30451">
        <ele>247.2</ele>
        <time>2013-09-27T15:33:09Z</time>
      </trkpt>
      <trkpt lat="44.54292" lon="2.30486">
        <ele>246.72</ele>
        <time>2013-09-27T15:33:19Z</time>
      </trkpt>
      <trkpt lat="44.54279" lon="2.30534">
        <ele>246.23</ele>
        <time>2013-09-27T15:33:31Z</time>
      </trkpt>
      <trkpt lat="44.5428" lon="2.30587">
        <ele>246.72</ele>
        <time>2013-09-27T15:33:43Z</time>
      </trkpt>
      <trkpt lat="44.54281" lon="2.30634">
        <ele>247.2</ele>
        <time>2013-09-27T15:33:54Z</time>
      </trkpt>
      <trkpt lat="44.54281" lon="2.30646">
        <ele>247.2</ele>
        <time>2013-09-27T15:33:57Z</time>
      </trkpt>
      <trkpt lat="44.54263" lon="2.30683">
        <ele>247.68</ele>
        <time>2013-09-27T15:34:08Z</time>
      </trkpt>
      <trkpt lat="44.54247" lon="2.30712">
        <ele>247.2</ele>
        <time>2013-09-27T15:34:17Z</time>
      </trkpt>
      <trkpt lat="44.54228" lon="2.30718">
        <ele>247.2</ele>
        <time>2013-09-27T15:34:25Z</time>
      </trkpt>
      <trkpt lat="44.54211" lon="2.3071">
        <ele>247.2</ele>
        <time>2013-09-27T15:34:31Z</time>
      </trkpt>
      <trkpt lat="44.5419" lon="2.30704">
        <ele>247.2</ele>
        <time>2013-09-27T15:34:38Z</time>
      </trkpt>
      <trkpt lat="44.54154" lon="2.30701">
        <ele>246.72</ele>
        <time>2013-09-27T15:34:50Z</time>
      </trkpt>
      <trkpt lat="44.54141" lon="2.30699">
        <ele>246.23</ele>
        <time>2013-09-27T15:34:55Z</time>
      </trkpt>
      <trkpt lat="44.54134" lon="2.30703">
        <ele>245.75</ele>
        <time>2013-09-27T15:34:59Z</time>
      </trkpt>
      <trkpt lat="44.5413" lon="2.30705">
        <ele>245.27</ele>
        <time>2013-09-27T15:35:01Z</time>
      </trkpt>
      <trkpt lat="44.54114" lon="2.30732">
        <ele>245.75</ele>
        <time>2013-09-27T15:35:11Z</time>
      </trkpt>
      <trkpt lat="44.54114" lon="2.30741">
        <ele>245.75</ele>
        <time>2013-09-27T15:35:15Z</time>
      </trkpt>
      <trkpt lat="44.5411" lon="2.30752">
        <ele>245.75</ele>
        <time>2013-09-27T15:35:22Z</time>
      </trkpt>
      <trkpt lat="44.54115" lon="2.30771">
        <ele>245.75</ele>
        <time>2013-09-27T15:35:40Z</time>
      </trkpt>
    </trkseg>
  </trk>
</gpx>